<?xml version="1.0" encoding="UTF-8" standalone="no" ?>
<gpx xmlns="http://www.topografix.com/GPX/1/1" xmlns:xsi="http://www.w3.org/2001/XMLSchema-instance" xsi:schemaLocation="http://www.topografix.com/GPX/1/1 http://www.topografix.com/GPX/1/1/gpx.xsd" version="1.1" creator="VisuGPX - https://www.visugpx.com">
  <metadata>
    <name>vtt valmasque</name>
    <desc><![CDATA[sortie Amadeus]]></desc>
  </metadata>
  <trk>
    <name><![CDATA[VTT Aga Valmasque]]></name>
    <trkseg>
      <trkpt lat="43.62229" lon="7.06149">
        <ele>128.60000610352</ele>
        <time>2012-01-19T11:16:22.000Z</time>
      </trkpt>
      <trkpt lat="43.62228" lon="7.0615">
        <ele>128.60000610352</ele>
        <time>2012-01-19T11:16:55.000Z</time>
      </trkpt>
      <trkpt lat="43.62229" lon="7.06152">
        <ele>128.60000610352</ele>
        <time>2012-01-19T11:17:02.000Z</time>
      </trkpt>
      <trkpt lat="43.62229" lon="7.06149">
        <ele>128.60000610352</ele>
        <time>2012-01-19T11:17:09.000Z</time>
      </trkpt>
      <trkpt lat="43.62223" lon="7.06139">
        <ele>128.39999389648</ele>
        <time>2012-01-19T11:17:14.000Z</time>
      </trkpt>
      <trkpt lat="43.6221" lon="7.06132">
        <ele>127.40000152588</ele>
        <time>2012-01-19T11:17:18.000Z</time>
      </trkpt>
      <trkpt lat="43.62202" lon="7.06128">
        <ele>126.59999847412</ele>
        <time>2012-01-19T11:17:21.000Z</time>
      </trkpt>
      <trkpt lat="43.622" lon="7.06129">
        <ele>126.40000152588</ele>
        <time>2012-01-19T11:17:22.000Z</time>
      </trkpt>
      <trkpt lat="43.62191" lon="7.06146">
        <ele>124.40000152588</ele>
        <time>2012-01-19T11:17:26.000Z</time>
      </trkpt>
      <trkpt lat="43.62173" lon="7.06155">
        <ele>122.19999694824</ele>
        <time>2012-01-19T11:17:30.000Z</time>
      </trkpt>
      <trkpt lat="43.62173" lon="7.06165">
        <ele>121.80000305176</ele>
        <time>2012-01-19T11:17:33.000Z</time>
      </trkpt>
      <trkpt lat="43.62184" lon="7.06174">
        <ele>122.59999847412</ele>
        <time>2012-01-19T11:17:35.000Z</time>
      </trkpt>
      <trkpt lat="43.62196" lon="7.06193">
        <ele>123</ele>
        <time>2012-01-19T11:17:39.000Z</time>
      </trkpt>
      <trkpt lat="43.62184" lon="7.0621">
        <ele>121.19999694824</ele>
        <time>2012-01-19T11:17:42.000Z</time>
      </trkpt>
      <trkpt lat="43.6217" lon="7.06219">
        <ele>119.40000152588</ele>
        <time>2012-01-19T11:17:44.000Z</time>
      </trkpt>
      <trkpt lat="43.62163" lon="7.06222">
        <ele>118.59999847412</ele>
        <time>2012-01-19T11:17:45.000Z</time>
      </trkpt>
      <trkpt lat="43.62142" lon="7.06218">
        <ele>116.59999847412</ele>
        <time>2012-01-19T11:17:48.000Z</time>
      </trkpt>
      <trkpt lat="43.62126" lon="7.06202">
        <ele>115.19999694824</ele>
        <time>2012-01-19T11:17:51.000Z</time>
      </trkpt>
      <trkpt lat="43.62124" lon="7.06196">
        <ele>115.19999694824</ele>
        <time>2012-01-19T11:17:52.000Z</time>
      </trkpt>
      <trkpt lat="43.62122" lon="7.06172">
        <ele>115.59999847412</ele>
        <time>2012-01-19T11:17:56.000Z</time>
      </trkpt>
      <trkpt lat="43.6212" lon="7.06165">
        <ele>115.59999847412</ele>
        <time>2012-01-19T11:17:58.000Z</time>
      </trkpt>
      <trkpt lat="43.62112" lon="7.06162">
        <ele>114.59999847412</ele>
        <time>2012-01-19T11:18:00.000Z</time>
      </trkpt>
      <trkpt lat="43.62094" lon="7.06154">
        <ele>112.59999847412</ele>
        <time>2012-01-19T11:18:06.000Z</time>
      </trkpt>
      <trkpt lat="43.62091" lon="7.06155">
        <ele>112.19999694824</ele>
        <time>2012-01-19T11:18:08.000Z</time>
      </trkpt>
      <trkpt lat="43.62087" lon="7.06161">
        <ele>111.59999847412</ele>
        <time>2012-01-19T11:18:10.000Z</time>
      </trkpt>
      <trkpt lat="43.62084" lon="7.06181">
        <ele>111</ele>
        <time>2012-01-19T11:18:13.000Z</time>
      </trkpt>
      <trkpt lat="43.62083" lon="7.06188">
        <ele>110.80000305176</ele>
        <time>2012-01-19T11:18:14.000Z</time>
      </trkpt>
      <trkpt lat="43.62082" lon="7.06215">
        <ele>110.40000152588</ele>
        <time>2012-01-19T11:18:17.000Z</time>
      </trkpt>
      <trkpt lat="43.62081" lon="7.06235">
        <ele>110</ele>
        <time>2012-01-19T11:18:19.000Z</time>
      </trkpt>
      <trkpt lat="43.6208" lon="7.06263">
        <ele>109.80000305176</ele>
        <time>2012-01-19T11:18:22.000Z</time>
      </trkpt>
      <trkpt lat="43.62079" lon="7.06289">
        <ele>109.80000305176</ele>
        <time>2012-01-19T11:18:25.000Z</time>
      </trkpt>
      <trkpt lat="43.62078" lon="7.06314">
        <ele>109.59999847412</ele>
        <time>2012-01-19T11:18:28.000Z</time>
      </trkpt>
      <trkpt lat="43.62077" lon="7.06328">
        <ele>109.59999847412</ele>
        <time>2012-01-19T11:18:30.000Z</time>
      </trkpt>
      <trkpt lat="43.62075" lon="7.06342">
        <ele>109.19999694824</ele>
        <time>2012-01-19T11:18:32.000Z</time>
      </trkpt>
      <trkpt lat="43.62069" lon="7.06362">
        <ele>108</ele>
        <time>2012-01-19T11:18:35.000Z</time>
      </trkpt>
      <trkpt lat="43.62067" lon="7.0637">
        <ele>107.59999847412</ele>
        <time>2012-01-19T11:18:36.000Z</time>
      </trkpt>
      <trkpt lat="43.62068" lon="7.06395">
        <ele>107</ele>
        <time>2012-01-19T11:18:39.000Z</time>
      </trkpt>
      <trkpt lat="43.62072" lon="7.06411">
        <ele>107</ele>
        <time>2012-01-19T11:18:41.000Z</time>
      </trkpt>
      <trkpt lat="43.62073" lon="7.0642">
        <ele>106.59999847412</ele>
        <time>2012-01-19T11:18:42.000Z</time>
      </trkpt>
      <trkpt lat="43.62072" lon="7.06429">
        <ele>105.59999847412</ele>
        <time>2012-01-19T11:18:43.000Z</time>
      </trkpt>
      <trkpt lat="43.62067" lon="7.06457">
        <ele>102.80000305176</ele>
        <time>2012-01-19T11:18:46.000Z</time>
      </trkpt>
      <trkpt lat="43.62064" lon="7.06466">
        <ele>102</ele>
        <time>2012-01-19T11:18:47.000Z</time>
      </trkpt>
      <trkpt lat="43.62052" lon="7.06491">
        <ele>99.199996948242</ele>
        <time>2012-01-19T11:18:50.000Z</time>
      </trkpt>
      <trkpt lat="43.62043" lon="7.06507">
        <ele>97.800003051758</ele>
        <time>2012-01-19T11:18:52.000Z</time>
      </trkpt>
      <trkpt lat="43.62028" lon="7.06533">
        <ele>96.199996948242</ele>
        <time>2012-01-19T11:18:55.000Z</time>
      </trkpt>
      <trkpt lat="43.62012" lon="7.06559">
        <ele>95.199996948242</ele>
        <time>2012-01-19T11:18:58.000Z</time>
      </trkpt>
      <trkpt lat="43.62006" lon="7.06568">
        <ele>95.199996948242</ele>
        <time>2012-01-19T11:18:59.000Z</time>
      </trkpt>
      <trkpt lat="43.6199" lon="7.06593">
        <ele>98.599998474121</ele>
        <time>2012-01-19T11:19:02.000Z</time>
      </trkpt>
      <trkpt lat="43.61975" lon="7.06618">
        <ele>103.80000305176</ele>
        <time>2012-01-19T11:19:05.000Z</time>
      </trkpt>
      <trkpt lat="43.61957" lon="7.06641">
        <ele>107.40000152588</ele>
        <time>2012-01-19T11:19:08.000Z</time>
      </trkpt>
      <trkpt lat="43.61941" lon="7.06666">
        <ele>108.59999847412</ele>
        <time>2012-01-19T11:19:11.000Z</time>
      </trkpt>
      <trkpt lat="43.61936" lon="7.06673">
        <ele>109</ele>
        <time>2012-01-19T11:19:12.000Z</time>
      </trkpt>
      <trkpt lat="43.61922" lon="7.06695">
        <ele>110</ele>
        <time>2012-01-19T11:19:15.000Z</time>
      </trkpt>
      <trkpt lat="43.6191" lon="7.06714">
        <ele>111</ele>
        <time>2012-01-19T11:19:18.000Z</time>
      </trkpt>
      <trkpt lat="43.61898" lon="7.06733">
        <ele>112.59999847412</ele>
        <time>2012-01-19T11:19:22.000Z</time>
      </trkpt>
      <trkpt lat="43.61895" lon="7.06737">
        <ele>112.80000305176</ele>
        <time>2012-01-19T11:19:23.000Z</time>
      </trkpt>
      <trkpt lat="43.61882" lon="7.06758">
        <ele>114</ele>
        <time>2012-01-19T11:19:28.000Z</time>
      </trkpt>
      <trkpt lat="43.61872" lon="7.06774">
        <ele>115.40000152588</ele>
        <time>2012-01-19T11:19:32.000Z</time>
      </trkpt>
      <trkpt lat="43.6186" lon="7.06794">
        <ele>116.40000152588</ele>
        <time>2012-01-19T11:19:37.000Z</time>
      </trkpt>
      <trkpt lat="43.61848" lon="7.06812">
        <ele>116.59999847412</ele>
        <time>2012-01-19T11:19:42.000Z</time>
      </trkpt>
      <trkpt lat="43.61836" lon="7.06835">
        <ele>116</ele>
        <time>2012-01-19T11:19:48.000Z</time>
      </trkpt>
      <trkpt lat="43.61834" lon="7.06838">
        <ele>116</ele>
        <time>2012-01-19T11:19:49.000Z</time>
      </trkpt>
      <trkpt lat="43.61822" lon="7.06862">
        <ele>117</ele>
        <time>2012-01-19T11:19:55.000Z</time>
      </trkpt>
      <trkpt lat="43.61816" lon="7.06873">
        <ele>117.40000152588</ele>
        <time>2012-01-19T11:19:58.000Z</time>
      </trkpt>
      <trkpt lat="43.61804" lon="7.06896">
        <ele>118</ele>
        <time>2012-01-19T11:20:04.000Z</time>
      </trkpt>
      <trkpt lat="43.61799" lon="7.06909">
        <ele>118.19999694824</ele>
        <time>2012-01-19T11:20:07.000Z</time>
      </trkpt>
      <trkpt lat="43.6179" lon="7.06933">
        <ele>119.59999847412</ele>
        <time>2012-01-19T11:20:13.000Z</time>
      </trkpt>
      <trkpt lat="43.61786" lon="7.06946">
        <ele>120.59999847412</ele>
        <time>2012-01-19T11:20:16.000Z</time>
      </trkpt>
      <trkpt lat="43.61779" lon="7.06971">
        <ele>122.40000152588</ele>
        <time>2012-01-19T11:20:22.000Z</time>
      </trkpt>
      <trkpt lat="43.61774" lon="7.06988">
        <ele>123.59999847412</ele>
        <time>2012-01-19T11:20:26.000Z</time>
      </trkpt>
      <trkpt lat="43.61767" lon="7.07013">
        <ele>125</ele>
        <time>2012-01-19T11:20:32.000Z</time>
      </trkpt>
      <trkpt lat="43.61765" lon="7.07016">
        <ele>125</ele>
        <time>2012-01-19T11:20:33.000Z</time>
      </trkpt>
      <trkpt lat="43.61753" lon="7.07036">
        <ele>125.80000305176</ele>
        <time>2012-01-19T11:20:39.000Z</time>
      </trkpt>
      <trkpt lat="43.61751" lon="7.07037">
        <ele>125.80000305176</ele>
        <time>2012-01-19T11:20:40.000Z</time>
      </trkpt>
      <trkpt lat="43.61731" lon="7.07048">
        <ele>128.19999694824</ele>
        <time>2012-01-19T11:20:46.000Z</time>
      </trkpt>
      <trkpt lat="43.61728" lon="7.07051">
        <ele>128.60000610352</ele>
        <time>2012-01-19T11:20:47.000Z</time>
      </trkpt>
      <trkpt lat="43.61712" lon="7.07063">
        <ele>130.60000610352</ele>
        <time>2012-01-19T11:20:52.000Z</time>
      </trkpt>
      <trkpt lat="43.61708" lon="7.07061">
        <ele>130.80000305176</ele>
        <time>2012-01-19T11:20:53.000Z</time>
      </trkpt>
      <trkpt lat="43.61705" lon="7.07046">
        <ele>131.19999694824</ele>
        <time>2012-01-19T11:20:56.000Z</time>
      </trkpt>
      <trkpt lat="43.61705" lon="7.07032">
        <ele>131</ele>
        <time>2012-01-19T11:21:00.000Z</time>
      </trkpt>
      <trkpt lat="43.61702" lon="7.07026">
        <ele>131.39999389648</ele>
        <time>2012-01-19T11:21:03.000Z</time>
      </trkpt>
      <trkpt lat="43.61696" lon="7.07011">
        <ele>132.19999694824</ele>
        <time>2012-01-19T11:21:07.000Z</time>
      </trkpt>
      <trkpt lat="43.61694" lon="7.07001">
        <ele>132.39999389648</ele>
        <time>2012-01-19T11:21:09.000Z</time>
      </trkpt>
      <trkpt lat="43.6169" lon="7.06975">
        <ele>131.19999694824</ele>
        <time>2012-01-19T11:21:14.000Z</time>
      </trkpt>
      <trkpt lat="43.61682" lon="7.0695">
        <ele>130.39999389648</ele>
        <time>2012-01-19T11:21:19.000Z</time>
      </trkpt>
      <trkpt lat="43.61678" lon="7.06941">
        <ele>130.39999389648</ele>
        <time>2012-01-19T11:21:21.000Z</time>
      </trkpt>
      <trkpt lat="43.61662" lon="7.06922">
        <ele>130.60000610352</ele>
        <time>2012-01-19T11:21:26.000Z</time>
      </trkpt>
      <trkpt lat="43.61658" lon="7.06919">
        <ele>130.60000610352</ele>
        <time>2012-01-19T11:21:27.000Z</time>
      </trkpt>
      <trkpt lat="43.61655" lon="7.06916">
        <ele>130.60000610352</ele>
        <time>2012-01-19T11:21:28.000Z</time>
      </trkpt>
      <trkpt lat="43.61642" lon="7.06897">
        <ele>130</ele>
        <time>2012-01-19T11:21:32.000Z</time>
      </trkpt>
      <trkpt lat="43.61638" lon="7.06884">
        <ele>129.60000610352</ele>
        <time>2012-01-19T11:21:34.000Z</time>
      </trkpt>
      <trkpt lat="43.61628" lon="7.06858">
        <ele>128.39999389648</ele>
        <time>2012-01-19T11:21:38.000Z</time>
      </trkpt>
      <trkpt lat="43.6162" lon="7.06831">
        <ele>127</ele>
        <time>2012-01-19T11:21:42.000Z</time>
      </trkpt>
      <trkpt lat="43.61617" lon="7.06816">
        <ele>127</ele>
        <time>2012-01-19T11:21:44.000Z</time>
      </trkpt>
      <trkpt lat="43.6161" lon="7.06787">
        <ele>126.80000305176</ele>
        <time>2012-01-19T11:21:48.000Z</time>
      </trkpt>
      <trkpt lat="43.61607" lon="7.06764">
        <ele>126.40000152588</ele>
        <time>2012-01-19T11:21:51.000Z</time>
      </trkpt>
      <trkpt lat="43.61603" lon="7.06733">
        <ele>126.40000152588</ele>
        <time>2012-01-19T11:21:55.000Z</time>
      </trkpt>
      <trkpt lat="43.61601" lon="7.06703">
        <ele>126.80000305176</ele>
        <time>2012-01-19T11:21:59.000Z</time>
      </trkpt>
      <trkpt lat="43.61601" lon="7.06695">
        <ele>127</ele>
        <time>2012-01-19T11:22:00.000Z</time>
      </trkpt>
      <trkpt lat="43.61602" lon="7.06664">
        <ele>127.40000152588</ele>
        <time>2012-01-19T11:22:04.000Z</time>
      </trkpt>
      <trkpt lat="43.61602" lon="7.06634">
        <ele>127.19999694824</ele>
        <time>2012-01-19T11:22:08.000Z</time>
      </trkpt>
      <trkpt lat="43.61601" lon="7.06628">
        <ele>127</ele>
        <time>2012-01-19T11:22:09.000Z</time>
      </trkpt>
      <trkpt lat="43.61594" lon="7.06616">
        <ele>126.19999694824</ele>
        <time>2012-01-19T11:22:12.000Z</time>
      </trkpt>
      <trkpt lat="43.6158" lon="7.06598">
        <ele>123.80000305176</ele>
        <time>2012-01-19T11:22:17.000Z</time>
      </trkpt>
      <trkpt lat="43.6158" lon="7.06574">
        <ele>123</ele>
        <time>2012-01-19T11:22:21.000Z</time>
      </trkpt>
      <trkpt lat="43.61582" lon="7.06565">
        <ele>122.80000305176</ele>
        <time>2012-01-19T11:22:22.000Z</time>
      </trkpt>
      <trkpt lat="43.61583" lon="7.06545">
        <ele>122.19999694824</ele>
        <time>2012-01-19T11:22:24.000Z</time>
      </trkpt>
      <trkpt lat="43.61584" lon="7.06533">
        <ele>121.59999847412</ele>
        <time>2012-01-19T11:22:25.000Z</time>
      </trkpt>
      <trkpt lat="43.61581" lon="7.06506">
        <ele>119.80000305176</ele>
        <time>2012-01-19T11:22:27.000Z</time>
      </trkpt>
      <trkpt lat="43.61577" lon="7.06493">
        <ele>118.19999694824</ele>
        <time>2012-01-19T11:22:28.000Z</time>
      </trkpt>
      <trkpt lat="43.61573" lon="7.06481">
        <ele>116.40000152588</ele>
        <time>2012-01-19T11:22:29.000Z</time>
      </trkpt>
      <trkpt lat="43.61564" lon="7.06453">
        <ele>113.40000152588</ele>
        <time>2012-01-19T11:22:31.000Z</time>
      </trkpt>
      <trkpt lat="43.61561" lon="7.06438">
        <ele>112.40000152588</ele>
        <time>2012-01-19T11:22:32.000Z</time>
      </trkpt>
      <trkpt lat="43.6156" lon="7.06407">
        <ele>111.59999847412</ele>
        <time>2012-01-19T11:22:34.000Z</time>
      </trkpt>
      <trkpt lat="43.61561" lon="7.06391">
        <ele>112</ele>
        <time>2012-01-19T11:22:35.000Z</time>
      </trkpt>
      <trkpt lat="43.61565" lon="7.06357">
        <ele>113</ele>
        <time>2012-01-19T11:22:37.000Z</time>
      </trkpt>
      <trkpt lat="43.61561" lon="7.06331">
        <ele>113.59999847412</ele>
        <time>2012-01-19T11:22:39.000Z</time>
      </trkpt>
      <trkpt lat="43.61553" lon="7.06304">
        <ele>113.80000305176</ele>
        <time>2012-01-19T11:22:41.000Z</time>
      </trkpt>
      <trkpt lat="43.61551" lon="7.06294">
        <ele>113.80000305176</ele>
        <time>2012-01-19T11:22:42.000Z</time>
      </trkpt>
      <trkpt lat="43.61549" lon="7.06285">
        <ele>113.80000305176</ele>
        <time>2012-01-19T11:22:43.000Z</time>
      </trkpt>
      <trkpt lat="43.61542" lon="7.06259">
        <ele>113.40000152588</ele>
        <time>2012-01-19T11:22:46.000Z</time>
      </trkpt>
      <trkpt lat="43.61538" lon="7.06243">
        <ele>112.80000305176</ele>
        <time>2012-01-19T11:22:48.000Z</time>
      </trkpt>
      <trkpt lat="43.61532" lon="7.06219">
        <ele>112</ele>
        <time>2012-01-19T11:22:51.000Z</time>
      </trkpt>
      <trkpt lat="43.61525" lon="7.0619">
        <ele>111.19999694824</ele>
        <time>2012-01-19T11:22:54.000Z</time>
      </trkpt>
      <trkpt lat="43.61511" lon="7.06158">
        <ele>109.80000305176</ele>
        <time>2012-01-19T11:22:57.000Z</time>
      </trkpt>
      <trkpt lat="43.61505" lon="7.06149">
        <ele>109.40000152588</ele>
        <time>2012-01-19T11:22:58.000Z</time>
      </trkpt>
      <trkpt lat="43.61494" lon="7.06134">
        <ele>109.40000152588</ele>
        <time>2012-01-19T11:23:00.000Z</time>
      </trkpt>
      <trkpt lat="43.61484" lon="7.06122">
        <ele>110</ele>
        <time>2012-01-19T11:23:02.000Z</time>
      </trkpt>
      <trkpt lat="43.6147" lon="7.06101">
        <ele>110.59999847412</ele>
        <time>2012-01-19T11:23:06.000Z</time>
      </trkpt>
      <trkpt lat="43.61461" lon="7.06086">
        <ele>111</ele>
        <time>2012-01-19T11:23:09.000Z</time>
      </trkpt>
      <trkpt lat="43.6145" lon="7.06061">
        <ele>110.40000152588</ele>
        <time>2012-01-19T11:23:13.000Z</time>
      </trkpt>
      <trkpt lat="43.61443" lon="7.06035">
        <ele>109.59999847412</ele>
        <time>2012-01-19T11:23:17.000Z</time>
      </trkpt>
      <trkpt lat="43.6144" lon="7.06014">
        <ele>108.80000305176</ele>
        <time>2012-01-19T11:23:20.000Z</time>
      </trkpt>
      <trkpt lat="43.61437" lon="7.05992">
        <ele>108.59999847412</ele>
        <time>2012-01-19T11:23:24.000Z</time>
      </trkpt>
      <trkpt lat="43.61433" lon="7.05988">
        <ele>108.59999847412</ele>
        <time>2012-01-19T11:23:26.000Z</time>
      </trkpt>
      <trkpt lat="43.61431" lon="7.05988">
        <ele>108.40000152588</ele>
        <time>2012-01-19T11:23:28.000Z</time>
      </trkpt>
      <trkpt lat="43.61427" lon="7.05987">
        <ele>108.19999694824</ele>
        <time>2012-01-19T11:23:30.000Z</time>
      </trkpt>
      <trkpt lat="43.61423" lon="7.05988">
        <ele>108</ele>
        <time>2012-01-19T11:23:32.000Z</time>
      </trkpt>
      <trkpt lat="43.61418" lon="7.05993">
        <ele>107.40000152588</ele>
        <time>2012-01-19T11:23:34.000Z</time>
      </trkpt>
      <trkpt lat="43.61405" lon="7.05991">
        <ele>108.59999847412</ele>
        <time>2012-01-19T11:23:38.000Z</time>
      </trkpt>
      <trkpt lat="43.61391" lon="7.05981">
        <ele>110.40000152588</ele>
        <time>2012-01-19T11:23:44.000Z</time>
      </trkpt>
      <trkpt lat="43.6137" lon="7.0598">
        <ele>112.40000152588</ele>
        <time>2012-01-19T11:23:49.000Z</time>
      </trkpt>
      <trkpt lat="43.61352" lon="7.05974">
        <ele>113.80000305176</ele>
        <time>2012-01-19T11:23:53.000Z</time>
      </trkpt>
      <trkpt lat="43.61347" lon="7.05973">
        <ele>114.19999694824</ele>
        <time>2012-01-19T11:23:54.000Z</time>
      </trkpt>
      <trkpt lat="43.61341" lon="7.05971">
        <ele>114.59999847412</ele>
        <time>2012-01-19T11:23:57.000Z</time>
      </trkpt>
      <trkpt lat="43.6134" lon="7.05974">
        <ele>114.80000305176</ele>
        <time>2012-01-19T11:23:58.000Z</time>
      </trkpt>
      <trkpt lat="43.61344" lon="7.05981">
        <ele>114.80000305176</ele>
        <time>2012-01-19T11:24:02.000Z</time>
      </trkpt>
      <trkpt lat="43.61346" lon="7.05983">
        <ele>114.80000305176</ele>
        <time>2012-01-19T11:24:03.000Z</time>
      </trkpt>
      <trkpt lat="43.61353" lon="7.05994">
        <ele>114.40000152588</ele>
        <time>2012-01-19T11:24:07.000Z</time>
      </trkpt>
      <trkpt lat="43.61361" lon="7.06003">
        <ele>114</ele>
        <time>2012-01-19T11:24:11.000Z</time>
      </trkpt>
      <trkpt lat="43.61373" lon="7.06022">
        <ele>114</ele>
        <time>2012-01-19T11:24:16.000Z</time>
      </trkpt>
      <trkpt lat="43.61385" lon="7.06047">
        <ele>114</ele>
        <time>2012-01-19T11:24:21.000Z</time>
      </trkpt>
      <trkpt lat="43.61391" lon="7.06071">
        <ele>114.80000305176</ele>
        <time>2012-01-19T11:24:25.000Z</time>
      </trkpt>
      <trkpt lat="43.61394" lon="7.06075">
        <ele>114.59999847412</ele>
        <time>2012-01-19T11:24:26.000Z</time>
      </trkpt>
      <trkpt lat="43.61404" lon="7.0609">
        <ele>113.59999847412</ele>
        <time>2012-01-19T11:24:29.000Z</time>
      </trkpt>
      <trkpt lat="43.61409" lon="7.06101">
        <ele>112.80000305176</ele>
        <time>2012-01-19T11:24:31.000Z</time>
      </trkpt>
      <trkpt lat="43.61406" lon="7.0612">
        <ele>113.59999847412</ele>
        <time>2012-01-19T11:24:34.000Z</time>
      </trkpt>
      <trkpt lat="43.6141" lon="7.06142">
        <ele>113.19999694824</ele>
        <time>2012-01-19T11:24:38.000Z</time>
      </trkpt>
      <trkpt lat="43.61415" lon="7.06145">
        <ele>112.19999694824</ele>
        <time>2012-01-19T11:24:39.000Z</time>
      </trkpt>
      <trkpt lat="43.61425" lon="7.06169">
        <ele>112</ele>
        <time>2012-01-19T11:24:44.000Z</time>
      </trkpt>
      <trkpt lat="43.61426" lon="7.06174">
        <ele>112.59999847412</ele>
        <time>2012-01-19T11:24:45.000Z</time>
      </trkpt>
      <trkpt lat="43.6143" lon="7.06186">
        <ele>114</ele>
        <time>2012-01-19T11:24:47.000Z</time>
      </trkpt>
      <trkpt lat="43.61435" lon="7.06203">
        <ele>115.59999847412</ele>
        <time>2012-01-19T11:24:50.000Z</time>
      </trkpt>
      <trkpt lat="43.61437" lon="7.06207">
        <ele>116</ele>
        <time>2012-01-19T11:24:51.000Z</time>
      </trkpt>
      <trkpt lat="43.61445" lon="7.0623">
        <ele>117.19999694824</ele>
        <time>2012-01-19T11:24:55.000Z</time>
      </trkpt>
      <trkpt lat="43.61457" lon="7.06249">
        <ele>116.40000152588</ele>
        <time>2012-01-19T11:24:59.000Z</time>
      </trkpt>
      <trkpt lat="43.61464" lon="7.06255">
        <ele>115.19999694824</ele>
        <time>2012-01-19T11:25:01.000Z</time>
      </trkpt>
      <trkpt lat="43.61473" lon="7.06262">
        <ele>113.59999847412</ele>
        <time>2012-01-19T11:25:03.000Z</time>
      </trkpt>
      <trkpt lat="43.61482" lon="7.0627">
        <ele>111.80000305176</ele>
        <time>2012-01-19T11:25:05.000Z</time>
      </trkpt>
      <trkpt lat="43.61485" lon="7.06276">
        <ele>111.40000152588</ele>
        <time>2012-01-19T11:25:06.000Z</time>
      </trkpt>
      <trkpt lat="43.61492" lon="7.06292">
        <ele>110.19999694824</ele>
        <time>2012-01-19T11:25:09.000Z</time>
      </trkpt>
      <trkpt lat="43.61494" lon="7.06299">
        <ele>110</ele>
        <time>2012-01-19T11:25:10.000Z</time>
      </trkpt>
      <trkpt lat="43.61497" lon="7.06325">
        <ele>109.80000305176</ele>
        <time>2012-01-19T11:25:14.000Z</time>
      </trkpt>
      <trkpt lat="43.61498" lon="7.06353">
        <ele>109.19999694824</ele>
        <time>2012-01-19T11:25:18.000Z</time>
      </trkpt>
      <trkpt lat="43.61496" lon="7.06381">
        <ele>109.40000152588</ele>
        <time>2012-01-19T11:25:22.000Z</time>
      </trkpt>
      <trkpt lat="43.61498" lon="7.06398">
        <ele>108.19999694824</ele>
        <time>2012-01-19T11:25:25.000Z</time>
      </trkpt>
      <trkpt lat="43.61498" lon="7.06405">
        <ele>108</ele>
        <time>2012-01-19T11:25:26.000Z</time>
      </trkpt>
      <trkpt lat="43.61498" lon="7.06427">
        <ele>107.19999694824</ele>
        <time>2012-01-19T11:25:30.000Z</time>
      </trkpt>
      <trkpt lat="43.61496" lon="7.06438">
        <ele>107.40000152588</ele>
        <time>2012-01-19T11:25:34.000Z</time>
      </trkpt>
      <trkpt lat="43.6149" lon="7.06455">
        <ele>108.19999694824</ele>
        <time>2012-01-19T11:25:38.000Z</time>
      </trkpt>
      <trkpt lat="43.61485" lon="7.06469">
        <ele>109</ele>
        <time>2012-01-19T11:25:43.000Z</time>
      </trkpt>
      <trkpt lat="43.61478" lon="7.06485">
        <ele>109.59999847412</ele>
        <time>2012-01-19T11:25:49.000Z</time>
      </trkpt>
      <trkpt lat="43.61469" lon="7.06506">
        <ele>110.80000305176</ele>
        <time>2012-01-19T11:25:55.000Z</time>
      </trkpt>
      <trkpt lat="43.61461" lon="7.06528">
        <ele>111.80000305176</ele>
        <time>2012-01-19T11:26:00.000Z</time>
      </trkpt>
      <trkpt lat="43.61448" lon="7.06548">
        <ele>112.19999694824</ele>
        <time>2012-01-19T11:26:06.000Z</time>
      </trkpt>
      <trkpt lat="43.61441" lon="7.06557">
        <ele>111.80000305176</ele>
        <time>2012-01-19T11:26:12.000Z</time>
      </trkpt>
      <trkpt lat="43.61437" lon="7.06569">
        <ele>110.59999847412</ele>
        <time>2012-01-19T11:26:17.000Z</time>
      </trkpt>
      <trkpt lat="43.61431" lon="7.06583">
        <ele>108.40000152588</ele>
        <time>2012-01-19T11:26:24.000Z</time>
      </trkpt>
      <trkpt lat="43.61429" lon="7.06587">
        <ele>108</ele>
        <time>2012-01-19T11:26:26.000Z</time>
      </trkpt>
      <trkpt lat="43.61423" lon="7.06594">
        <ele>107.19999694824</ele>
        <time>2012-01-19T11:26:29.000Z</time>
      </trkpt>
      <trkpt lat="43.61414" lon="7.06605">
        <ele>106.19999694824</ele>
        <time>2012-01-19T11:26:32.000Z</time>
      </trkpt>
      <trkpt lat="43.6141" lon="7.06609">
        <ele>106</ele>
        <time>2012-01-19T11:26:33.000Z</time>
      </trkpt>
      <trkpt lat="43.61398" lon="7.06632">
        <ele>104.40000152588</ele>
        <time>2012-01-19T11:26:37.000Z</time>
      </trkpt>
      <trkpt lat="43.61396" lon="7.06637">
        <ele>104.19999694824</ele>
        <time>2012-01-19T11:26:38.000Z</time>
      </trkpt>
      <trkpt lat="43.61384" lon="7.06659">
        <ele>101.80000305176</ele>
        <time>2012-01-19T11:26:42.000Z</time>
      </trkpt>
      <trkpt lat="43.6138" lon="7.06668">
        <ele>100.80000305176</ele>
        <time>2012-01-19T11:26:44.000Z</time>
      </trkpt>
      <trkpt lat="43.61366" lon="7.06688">
        <ele>99.599998474121</ele>
        <time>2012-01-19T11:26:48.000Z</time>
      </trkpt>
      <trkpt lat="43.61359" lon="7.06697">
        <ele>98.599998474121</ele>
        <time>2012-01-19T11:26:50.000Z</time>
      </trkpt>
      <trkpt lat="43.61354" lon="7.06697">
        <ele>98.400001525879</ele>
        <time>2012-01-19T11:26:51.000Z</time>
      </trkpt>
      <trkpt lat="43.61343" lon="7.06703">
        <ele>97.199996948242</ele>
        <time>2012-01-19T11:26:54.000Z</time>
      </trkpt>
      <trkpt lat="43.61338" lon="7.06707">
        <ele>96.599998474121</ele>
        <time>2012-01-19T11:26:56.000Z</time>
      </trkpt>
      <trkpt lat="43.61333" lon="7.06712">
        <ele>95.400001525879</ele>
        <time>2012-01-19T11:26:58.000Z</time>
      </trkpt>
      <trkpt lat="43.61315" lon="7.06723">
        <ele>94.199996948242</ele>
        <time>2012-01-19T11:27:03.000Z</time>
      </trkpt>
      <trkpt lat="43.61309" lon="7.06737">
        <ele>92.400001525879</ele>
        <time>2012-01-19T11:27:07.000Z</time>
      </trkpt>
      <trkpt lat="43.61305" lon="7.06758">
        <ele>91</ele>
        <time>2012-01-19T11:27:12.000Z</time>
      </trkpt>
      <trkpt lat="43.61298" lon="7.06779">
        <ele>90.800003051758</ele>
        <time>2012-01-19T11:27:16.000Z</time>
      </trkpt>
      <trkpt lat="43.61292" lon="7.06801">
        <ele>90.199996948242</ele>
        <time>2012-01-19T11:27:21.000Z</time>
      </trkpt>
      <trkpt lat="43.61286" lon="7.0681">
        <ele>89.800003051758</ele>
        <time>2012-01-19T11:27:26.000Z</time>
      </trkpt>
      <trkpt lat="43.61281" lon="7.06815">
        <ele>89.599998474121</ele>
        <time>2012-01-19T11:27:30.000Z</time>
      </trkpt>
      <trkpt lat="43.61282" lon="7.06814">
        <ele>89.599998474121</ele>
        <time>2012-01-19T11:27:31.000Z</time>
      </trkpt>
      <trkpt lat="43.61282" lon="7.0682">
        <ele>89.400001525879</ele>
        <time>2012-01-19T11:27:41.000Z</time>
      </trkpt>
      <trkpt lat="43.61283" lon="7.06819">
        <ele>89.400001525879</ele>
        <time>2012-01-19T11:27:56.000Z</time>
      </trkpt>
      <trkpt lat="43.61275" lon="7.06831">
        <ele>88.599998474121</ele>
        <time>2012-01-19T11:29:00.000Z</time>
      </trkpt>
      <trkpt lat="43.61269" lon="7.06836">
        <ele>88</ele>
        <time>2012-01-19T11:29:15.000Z</time>
      </trkpt>
      <trkpt lat="43.61268" lon="7.06835">
        <ele>88</ele>
        <time>2012-01-19T11:29:20.000Z</time>
      </trkpt>
      <trkpt lat="43.61265" lon="7.06842">
        <ele>87.599998474121</ele>
        <time>2012-01-19T11:29:40.000Z</time>
      </trkpt>
      <trkpt lat="43.61266" lon="7.06844">
        <ele>87.599998474121</ele>
        <time>2012-01-19T11:29:41.000Z</time>
      </trkpt>
      <trkpt lat="43.61268" lon="7.06851">
        <ele>87.599998474121</ele>
        <time>2012-01-19T11:29:44.000Z</time>
      </trkpt>
      <trkpt lat="43.61268" lon="7.06854">
        <ele>87.599998474121</ele>
        <time>2012-01-19T11:29:46.000Z</time>
      </trkpt>
      <trkpt lat="43.61268" lon="7.0686">
        <ele>87.400001525879</ele>
        <time>2012-01-19T11:29:49.000Z</time>
      </trkpt>
      <trkpt lat="43.61269" lon="7.06869">
        <ele>87.199996948242</ele>
        <time>2012-01-19T11:29:52.000Z</time>
      </trkpt>
      <trkpt lat="43.6127" lon="7.06879">
        <ele>87</ele>
        <time>2012-01-19T11:29:57.000Z</time>
      </trkpt>
      <trkpt lat="43.6127" lon="7.06892">
        <ele>86.800003051758</ele>
        <time>2012-01-19T11:30:03.000Z</time>
      </trkpt>
      <trkpt lat="43.61269" lon="7.06895">
        <ele>86.599998474121</ele>
        <time>2012-01-19T11:30:04.000Z</time>
      </trkpt>
      <trkpt lat="43.61267" lon="7.06901">
        <ele>86</ele>
        <time>2012-01-19T11:30:08.000Z</time>
      </trkpt>
      <trkpt lat="43.61266" lon="7.06909">
        <ele>85.800003051758</ele>
        <time>2012-01-19T11:30:10.000Z</time>
      </trkpt>
      <trkpt lat="43.61263" lon="7.06916">
        <ele>85.199996948242</ele>
        <time>2012-01-19T11:30:12.000Z</time>
      </trkpt>
      <trkpt lat="43.61257" lon="7.06932">
        <ele>83.800003051758</ele>
        <time>2012-01-19T11:30:17.000Z</time>
      </trkpt>
      <trkpt lat="43.61252" lon="7.0694">
        <ele>82.800003051758</ele>
        <time>2012-01-19T11:30:22.000Z</time>
      </trkpt>
      <trkpt lat="43.61251" lon="7.06943">
        <ele>82.599998474121</ele>
        <time>2012-01-19T11:30:24.000Z</time>
      </trkpt>
      <trkpt lat="43.61247" lon="7.06954">
        <ele>82</ele>
        <time>2012-01-19T11:30:27.000Z</time>
      </trkpt>
      <trkpt lat="43.61246" lon="7.06957">
        <ele>81.800003051758</ele>
        <time>2012-01-19T11:30:28.000Z</time>
      </trkpt>
      <trkpt lat="43.61243" lon="7.06967">
        <ele>81.599998474121</ele>
        <time>2012-01-19T11:30:33.000Z</time>
      </trkpt>
      <trkpt lat="43.61242" lon="7.06972">
        <ele>81.400001525879</ele>
        <time>2012-01-19T11:30:39.000Z</time>
      </trkpt>
      <trkpt lat="43.6124" lon="7.06976">
        <ele>81.199996948242</ele>
        <time>2012-01-19T11:30:43.000Z</time>
      </trkpt>
      <trkpt lat="43.61241" lon="7.06978">
        <ele>81.199996948242</ele>
        <time>2012-01-19T11:30:45.000Z</time>
      </trkpt>
      <trkpt lat="43.61243" lon="7.06983">
        <ele>81.199996948242</ele>
        <time>2012-01-19T11:30:56.000Z</time>
      </trkpt>
      <trkpt lat="43.61243" lon="7.06988">
        <ele>81</ele>
        <time>2012-01-19T11:31:04.000Z</time>
      </trkpt>
      <trkpt lat="43.61246" lon="7.06989">
        <ele>81.199996948242</ele>
        <time>2012-01-19T11:31:18.000Z</time>
      </trkpt>
      <trkpt lat="43.61245" lon="7.0699">
        <ele>81.199996948242</ele>
        <time>2012-01-19T11:31:24.000Z</time>
      </trkpt>
      <trkpt lat="43.61242" lon="7.06998">
        <ele>80.800003051758</ele>
        <time>2012-01-19T11:31:41.000Z</time>
      </trkpt>
      <trkpt lat="43.61247" lon="7.07004">
        <ele>81</ele>
        <time>2012-01-19T11:31:48.000Z</time>
      </trkpt>
      <trkpt lat="43.61248" lon="7.07013">
        <ele>81.599998474121</ele>
        <time>2012-01-19T11:31:55.000Z</time>
      </trkpt>
      <trkpt lat="43.6125" lon="7.07024">
        <ele>82.199996948242</ele>
        <time>2012-01-19T11:32:02.000Z</time>
      </trkpt>
      <trkpt lat="43.6125" lon="7.0703">
        <ele>82.599998474121</ele>
        <time>2012-01-19T11:32:10.000Z</time>
      </trkpt>
      <trkpt lat="43.61248" lon="7.07042">
        <ele>83</ele>
        <time>2012-01-19T11:32:15.000Z</time>
      </trkpt>
      <trkpt lat="43.61245" lon="7.07054">
        <ele>83.199996948242</ele>
        <time>2012-01-19T11:32:19.000Z</time>
      </trkpt>
      <trkpt lat="43.61245" lon="7.07058">
        <ele>83.599998474121</ele>
        <time>2012-01-19T11:32:20.000Z</time>
      </trkpt>
      <trkpt lat="43.61243" lon="7.07073">
        <ele>84</ele>
        <time>2012-01-19T11:32:24.000Z</time>
      </trkpt>
      <trkpt lat="43.61243" lon="7.07076">
        <ele>84.199996948242</ele>
        <time>2012-01-19T11:32:25.000Z</time>
      </trkpt>
      <trkpt lat="43.61245" lon="7.07091">
        <ele>84.800003051758</ele>
        <time>2012-01-19T11:32:30.000Z</time>
      </trkpt>
      <trkpt lat="43.61247" lon="7.07101">
        <ele>85.199996948242</ele>
        <time>2012-01-19T11:32:35.000Z</time>
      </trkpt>
      <trkpt lat="43.61246" lon="7.07104">
        <ele>85.199996948242</ele>
        <time>2012-01-19T11:32:37.000Z</time>
      </trkpt>
      <trkpt lat="43.61245" lon="7.07109">
        <ele>85.199996948242</ele>
        <time>2012-01-19T11:32:40.000Z</time>
      </trkpt>
      <trkpt lat="43.61241" lon="7.07122">
        <ele>85</ele>
        <time>2012-01-19T11:32:45.000Z</time>
      </trkpt>
      <trkpt lat="43.61234" lon="7.07134">
        <ele>84.599998474121</ele>
        <time>2012-01-19T11:32:52.000Z</time>
      </trkpt>
      <trkpt lat="43.61231" lon="7.07138">
        <ele>84.400001525879</ele>
        <time>2012-01-19T11:32:57.000Z</time>
      </trkpt>
      <trkpt lat="43.6123" lon="7.07142">
        <ele>84.199996948242</ele>
        <time>2012-01-19T11:32:59.000Z</time>
      </trkpt>
      <trkpt lat="43.6123" lon="7.0715">
        <ele>84.400001525879</ele>
        <time>2012-01-19T11:33:03.000Z</time>
      </trkpt>
      <trkpt lat="43.6123" lon="7.07161">
        <ele>84.599998474121</ele>
        <time>2012-01-19T11:33:09.000Z</time>
      </trkpt>
      <trkpt lat="43.61229" lon="7.07177">
        <ele>84.400001525879</ele>
        <time>2012-01-19T11:33:15.000Z</time>
      </trkpt>
      <trkpt lat="43.61226" lon="7.07188">
        <ele>84.199996948242</ele>
        <time>2012-01-19T11:33:20.000Z</time>
      </trkpt>
      <trkpt lat="43.61222" lon="7.07205">
        <ele>83.599998474121</ele>
        <time>2012-01-19T11:33:26.000Z</time>
      </trkpt>
      <trkpt lat="43.61218" lon="7.07224">
        <ele>82.800003051758</ele>
        <time>2012-01-19T11:33:30.000Z</time>
      </trkpt>
      <trkpt lat="43.61217" lon="7.0725">
        <ele>82.400001525879</ele>
        <time>2012-01-19T11:33:34.000Z</time>
      </trkpt>
      <trkpt lat="43.6122" lon="7.07272">
        <ele>82.599998474121</ele>
        <time>2012-01-19T11:33:38.000Z</time>
      </trkpt>
      <trkpt lat="43.61222" lon="7.07277">
        <ele>82.800003051758</ele>
        <time>2012-01-19T11:33:39.000Z</time>
      </trkpt>
      <trkpt lat="43.61224" lon="7.07284">
        <ele>83</ele>
        <time>2012-01-19T11:33:41.000Z</time>
      </trkpt>
      <trkpt lat="43.61226" lon="7.07292">
        <ele>83.400001525879</ele>
        <time>2012-01-19T11:33:43.000Z</time>
      </trkpt>
      <trkpt lat="43.61238" lon="7.07303">
        <ele>85.199996948242</ele>
        <time>2012-01-19T11:33:47.000Z</time>
      </trkpt>
      <trkpt lat="43.61241" lon="7.07305">
        <ele>85.800003051758</ele>
        <time>2012-01-19T11:33:48.000Z</time>
      </trkpt>
      <trkpt lat="43.61248" lon="7.07308">
        <ele>87</ele>
        <time>2012-01-19T11:33:52.000Z</time>
      </trkpt>
      <trkpt lat="43.61254" lon="7.07313">
        <ele>87.599998474121</ele>
        <time>2012-01-19T11:33:56.000Z</time>
      </trkpt>
      <trkpt lat="43.61254" lon="7.07317">
        <ele>87.599998474121</ele>
        <time>2012-01-19T11:33:58.000Z</time>
      </trkpt>
      <trkpt lat="43.61249" lon="7.07317">
        <ele>87</ele>
        <time>2012-01-19T11:34:02.000Z</time>
      </trkpt>
      <trkpt lat="43.61244" lon="7.07315">
        <ele>86.199996948242</ele>
        <time>2012-01-19T11:34:04.000Z</time>
      </trkpt>
      <trkpt lat="43.61235" lon="7.07313">
        <ele>84.599998474121</ele>
        <time>2012-01-19T11:34:08.000Z</time>
      </trkpt>
      <trkpt lat="43.61222" lon="7.07306">
        <ele>82.400001525879</ele>
        <time>2012-01-19T11:34:14.000Z</time>
      </trkpt>
      <trkpt lat="43.6122" lon="7.07303">
        <ele>82.199996948242</ele>
        <time>2012-01-19T11:34:15.000Z</time>
      </trkpt>
      <trkpt lat="43.61209" lon="7.07282">
        <ele>80.599998474121</ele>
        <time>2012-01-19T11:34:20.000Z</time>
      </trkpt>
      <trkpt lat="43.61207" lon="7.07277">
        <ele>80.199996948242</ele>
        <time>2012-01-19T11:34:21.000Z</time>
      </trkpt>
      <trkpt lat="43.61196" lon="7.07252">
        <ele>78.800003051758</ele>
        <time>2012-01-19T11:34:25.000Z</time>
      </trkpt>
      <trkpt lat="43.61192" lon="7.07238">
        <ele>78.400001525879</ele>
        <time>2012-01-19T11:34:27.000Z</time>
      </trkpt>
      <trkpt lat="43.61188" lon="7.07209">
        <ele>78.599998474121</ele>
        <time>2012-01-19T11:34:31.000Z</time>
      </trkpt>
      <trkpt lat="43.61188" lon="7.07201">
        <ele>78.800003051758</ele>
        <time>2012-01-19T11:34:32.000Z</time>
      </trkpt>
      <trkpt lat="43.61182" lon="7.07182">
        <ele>78.400001525879</ele>
        <time>2012-01-19T11:34:36.000Z</time>
      </trkpt>
      <trkpt lat="43.61176" lon="7.07179">
        <ele>77.599998474121</ele>
        <time>2012-01-19T11:34:38.000Z</time>
      </trkpt>
      <trkpt lat="43.6117" lon="7.07174">
        <ele>77.199996948242</ele>
        <time>2012-01-19T11:34:40.000Z</time>
      </trkpt>
      <trkpt lat="43.61168" lon="7.0717">
        <ele>77</ele>
        <time>2012-01-19T11:34:41.000Z</time>
      </trkpt>
      <trkpt lat="43.61163" lon="7.07149">
        <ele>78.400001525879</ele>
        <time>2012-01-19T11:34:45.000Z</time>
      </trkpt>
      <trkpt lat="43.6117" lon="7.07121">
        <ele>78.400001525879</ele>
        <time>2012-01-19T11:34:51.000Z</time>
      </trkpt>
      <trkpt lat="43.61175" lon="7.07096">
        <ele>79.400001525879</ele>
        <time>2012-01-19T11:34:57.000Z</time>
      </trkpt>
      <trkpt lat="43.61175" lon="7.07088">
        <ele>79.599998474121</ele>
        <time>2012-01-19T11:34:59.000Z</time>
      </trkpt>
      <trkpt lat="43.61172" lon="7.07063">
        <ele>79.400001525879</ele>
        <time>2012-01-19T11:35:06.000Z</time>
      </trkpt>
      <trkpt lat="43.61171" lon="7.0706">
        <ele>79.199996948242</ele>
        <time>2012-01-19T11:35:07.000Z</time>
      </trkpt>
      <trkpt lat="43.61168" lon="7.07039">
        <ele>79</ele>
        <time>2012-01-19T11:35:15.000Z</time>
      </trkpt>
      <trkpt lat="43.61168" lon="7.07038">
        <ele>79</ele>
        <time>2012-01-19T11:35:16.000Z</time>
      </trkpt>
      <trkpt lat="43.61165" lon="7.07038">
        <ele>79.599998474121</ele>
        <time>2012-01-19T11:35:19.000Z</time>
      </trkpt>
      <trkpt lat="43.61163" lon="7.07041">
        <ele>80</ele>
        <time>2012-01-19T11:35:21.000Z</time>
      </trkpt>
      <trkpt lat="43.61163" lon="7.07043">
        <ele>80.199996948242</ele>
        <time>2012-01-19T11:35:25.000Z</time>
      </trkpt>
      <trkpt lat="43.61161" lon="7.07042">
        <ele>80.599998474121</ele>
        <time>2012-01-19T11:35:26.000Z</time>
      </trkpt>
      <trkpt lat="43.6116" lon="7.07036">
        <ele>81</ele>
        <time>2012-01-19T11:35:29.000Z</time>
      </trkpt>
      <trkpt lat="43.6116" lon="7.07029">
        <ele>81.199996948242</ele>
        <time>2012-01-19T11:35:32.000Z</time>
      </trkpt>
      <trkpt lat="43.61158" lon="7.0702">
        <ele>81.800003051758</ele>
        <time>2012-01-19T11:35:36.000Z</time>
      </trkpt>
      <trkpt lat="43.61155" lon="7.07002">
        <ele>82.800003051758</ele>
        <time>2012-01-19T11:35:44.000Z</time>
      </trkpt>
      <trkpt lat="43.61153" lon="7.06989">
        <ele>83.199996948242</ele>
        <time>2012-01-19T11:35:50.000Z</time>
      </trkpt>
      <trkpt lat="43.61147" lon="7.06976">
        <ele>84.599998474121</ele>
        <time>2012-01-19T11:35:58.000Z</time>
      </trkpt>
      <trkpt lat="43.61139" lon="7.06962">
        <ele>86.599998474121</ele>
        <time>2012-01-19T11:36:05.000Z</time>
      </trkpt>
      <trkpt lat="43.61136" lon="7.06952">
        <ele>87</ele>
        <time>2012-01-19T11:36:11.000Z</time>
      </trkpt>
      <trkpt lat="43.61133" lon="7.06945">
        <ele>87.599998474121</ele>
        <time>2012-01-19T11:36:17.000Z</time>
      </trkpt>
      <trkpt lat="43.61131" lon="7.0694">
        <ele>87.800003051758</ele>
        <time>2012-01-19T11:36:23.000Z</time>
      </trkpt>
      <trkpt lat="43.61128" lon="7.06938">
        <ele>88.199996948242</ele>
        <time>2012-01-19T11:36:26.000Z</time>
      </trkpt>
      <trkpt lat="43.61126" lon="7.06939">
        <ele>88.800003051758</ele>
        <time>2012-01-19T11:36:29.000Z</time>
      </trkpt>
      <trkpt lat="43.61126" lon="7.06938">
        <ele>89</ele>
        <time>2012-01-19T11:36:31.000Z</time>
      </trkpt>
      <trkpt lat="43.61126" lon="7.06936">
        <ele>88.800003051758</ele>
        <time>2012-01-19T11:36:36.000Z</time>
      </trkpt>
      <trkpt lat="43.61125" lon="7.06932">
        <ele>88.800003051758</ele>
        <time>2012-01-19T11:36:43.000Z</time>
      </trkpt>
      <trkpt lat="43.61124" lon="7.0693">
        <ele>88.800003051758</ele>
        <time>2012-01-19T11:36:44.000Z</time>
      </trkpt>
      <trkpt lat="43.61122" lon="7.06923">
        <ele>89</ele>
        <time>2012-01-19T11:36:48.000Z</time>
      </trkpt>
      <trkpt lat="43.61121" lon="7.06922">
        <ele>89.199996948242</ele>
        <time>2012-01-19T11:36:49.000Z</time>
      </trkpt>
      <trkpt lat="43.61115" lon="7.06914">
        <ele>90</ele>
        <time>2012-01-19T11:36:55.000Z</time>
      </trkpt>
      <trkpt lat="43.61111" lon="7.06911">
        <ele>90.400001525879</ele>
        <time>2012-01-19T11:36:58.000Z</time>
      </trkpt>
      <trkpt lat="43.61109" lon="7.06907">
        <ele>90.400001525879</ele>
        <time>2012-01-19T11:37:00.000Z</time>
      </trkpt>
      <trkpt lat="43.61105" lon="7.06904">
        <ele>90.800003051758</ele>
        <time>2012-01-19T11:37:03.000Z</time>
      </trkpt>
      <trkpt lat="43.61101" lon="7.06899">
        <ele>91</ele>
        <time>2012-01-19T11:37:06.000Z</time>
      </trkpt>
      <trkpt lat="43.61085" lon="7.06886">
        <ele>91.800003051758</ele>
        <time>2012-01-19T11:37:14.000Z</time>
      </trkpt>
      <trkpt lat="43.61078" lon="7.06886">
        <ele>93</ele>
        <time>2012-01-19T11:37:20.000Z</time>
      </trkpt>
      <trkpt lat="43.61076" lon="7.06886">
        <ele>93.400001525879</ele>
        <time>2012-01-19T11:37:28.000Z</time>
      </trkpt>
      <trkpt lat="43.61069" lon="7.06885">
        <ele>94.199996948242</ele>
        <time>2012-01-19T11:37:35.000Z</time>
      </trkpt>
      <trkpt lat="43.61062" lon="7.06879">
        <ele>94.199996948242</ele>
        <time>2012-01-19T11:37:40.000Z</time>
      </trkpt>
      <trkpt lat="43.61061" lon="7.0688">
        <ele>94.599998474121</ele>
        <time>2012-01-19T11:37:41.000Z</time>
      </trkpt>
      <trkpt lat="43.61056" lon="7.0688">
        <ele>95.400001525879</ele>
        <time>2012-01-19T11:37:44.000Z</time>
      </trkpt>
      <trkpt lat="43.6105" lon="7.06878">
        <ele>95.800003051758</ele>
        <time>2012-01-19T11:37:48.000Z</time>
      </trkpt>
      <trkpt lat="43.61046" lon="7.06879">
        <ele>96.599998474121</ele>
        <time>2012-01-19T11:37:52.000Z</time>
      </trkpt>
      <trkpt lat="43.61043" lon="7.0688">
        <ele>97.199996948242</ele>
        <time>2012-01-19T11:37:54.000Z</time>
      </trkpt>
      <trkpt lat="43.61041" lon="7.06879">
        <ele>97.400001525879</ele>
        <time>2012-01-19T11:37:56.000Z</time>
      </trkpt>
      <trkpt lat="43.6104" lon="7.0688">
        <ele>97.599998474121</ele>
        <time>2012-01-19T11:37:57.000Z</time>
      </trkpt>
      <trkpt lat="43.61039" lon="7.06879">
        <ele>97.599998474121</ele>
        <time>2012-01-19T11:37:59.000Z</time>
      </trkpt>
      <trkpt lat="43.61034" lon="7.06878">
        <ele>98</ele>
        <time>2012-01-19T11:38:05.000Z</time>
      </trkpt>
      <trkpt lat="43.61027" lon="7.06877">
        <ele>99</ele>
        <time>2012-01-19T11:38:11.000Z</time>
      </trkpt>
      <trkpt lat="43.61024" lon="7.06876">
        <ele>99.199996948242</ele>
        <time>2012-01-19T11:38:13.000Z</time>
      </trkpt>
      <trkpt lat="43.61016" lon="7.06875">
        <ele>100.19999694824</ele>
        <time>2012-01-19T11:38:17.000Z</time>
      </trkpt>
      <trkpt lat="43.61003" lon="7.06877">
        <ele>102.59999847412</ele>
        <time>2012-01-19T11:38:24.000Z</time>
      </trkpt>
      <trkpt lat="43.60992" lon="7.06875">
        <ele>103</ele>
        <time>2012-01-19T11:38:31.000Z</time>
      </trkpt>
      <trkpt lat="43.60984" lon="7.06875">
        <ele>103.19999694824</ele>
        <time>2012-01-19T11:38:36.000Z</time>
      </trkpt>
      <trkpt lat="43.60983" lon="7.06876">
        <ele>103.59999847412</ele>
        <time>2012-01-19T11:38:38.000Z</time>
      </trkpt>
      <trkpt lat="43.60982" lon="7.06877">
        <ele>103.80000305176</ele>
        <time>2012-01-19T11:38:39.000Z</time>
      </trkpt>
      <trkpt lat="43.60978" lon="7.06882">
        <ele>105</ele>
        <time>2012-01-19T11:38:45.000Z</time>
      </trkpt>
      <trkpt lat="43.60974" lon="7.06887">
        <ele>106.19999694824</ele>
        <time>2012-01-19T11:38:51.000Z</time>
      </trkpt>
      <trkpt lat="43.6097" lon="7.06886">
        <ele>106</ele>
        <time>2012-01-19T11:38:54.000Z</time>
      </trkpt>
      <trkpt lat="43.6097" lon="7.06887">
        <ele>106.40000152588</ele>
        <time>2012-01-19T11:38:57.000Z</time>
      </trkpt>
      <trkpt lat="43.6097" lon="7.06892">
        <ele>107.40000152588</ele>
        <time>2012-01-19T11:39:03.000Z</time>
      </trkpt>
      <trkpt lat="43.60969" lon="7.06897">
        <ele>108.40000152588</ele>
        <time>2012-01-19T11:39:10.000Z</time>
      </trkpt>
      <trkpt lat="43.6097" lon="7.06903">
        <ele>109.40000152588</ele>
        <time>2012-01-19T11:39:17.000Z</time>
      </trkpt>
      <trkpt lat="43.60971" lon="7.06906">
        <ele>110</ele>
        <time>2012-01-19T11:39:21.000Z</time>
      </trkpt>
      <trkpt lat="43.60971" lon="7.06911">
        <ele>111</ele>
        <time>2012-01-19T11:39:27.000Z</time>
      </trkpt>
      <trkpt lat="43.60971" lon="7.06914">
        <ele>111.40000152588</ele>
        <time>2012-01-19T11:39:31.000Z</time>
      </trkpt>
      <trkpt lat="43.60973" lon="7.0692">
        <ele>112.40000152588</ele>
        <time>2012-01-19T11:39:38.000Z</time>
      </trkpt>
      <trkpt lat="43.60972" lon="7.06926">
        <ele>113.40000152588</ele>
        <time>2012-01-19T11:39:44.000Z</time>
      </trkpt>
      <trkpt lat="43.60971" lon="7.06928">
        <ele>113.80000305176</ele>
        <time>2012-01-19T11:39:50.000Z</time>
      </trkpt>
      <trkpt lat="43.60971" lon="7.06936">
        <ele>115</ele>
        <time>2012-01-19T11:39:58.000Z</time>
      </trkpt>
      <trkpt lat="43.60972" lon="7.06938">
        <ele>115.19999694824</ele>
        <time>2012-01-19T11:40:03.000Z</time>
      </trkpt>
      <trkpt lat="43.60972" lon="7.06946">
        <ele>116.40000152588</ele>
        <time>2012-01-19T11:40:11.000Z</time>
      </trkpt>
      <trkpt lat="43.60971" lon="7.06948">
        <ele>116.80000305176</ele>
        <time>2012-01-19T11:40:14.000Z</time>
      </trkpt>
      <trkpt lat="43.60971" lon="7.0695">
        <ele>117</ele>
        <time>2012-01-19T11:40:16.000Z</time>
      </trkpt>
      <trkpt lat="43.60971" lon="7.06952">
        <ele>117.40000152588</ele>
        <time>2012-01-19T11:40:17.000Z</time>
      </trkpt>
      <trkpt lat="43.60972" lon="7.06962">
        <ele>119</ele>
        <time>2012-01-19T11:40:24.000Z</time>
      </trkpt>
      <trkpt lat="43.60972" lon="7.06963">
        <ele>119</ele>
        <time>2012-01-19T11:40:25.000Z</time>
      </trkpt>
      <trkpt lat="43.60973" lon="7.06966">
        <ele>119.59999847412</ele>
        <time>2012-01-19T11:40:29.000Z</time>
      </trkpt>
      <trkpt lat="43.60972" lon="7.06967">
        <ele>119.59999847412</ele>
        <time>2012-01-19T11:40:30.000Z</time>
      </trkpt>
      <trkpt lat="43.60972" lon="7.06974">
        <ele>120.80000305176</ele>
        <time>2012-01-19T11:40:36.000Z</time>
      </trkpt>
      <trkpt lat="43.60971" lon="7.06979">
        <ele>121.40000152588</ele>
        <time>2012-01-19T11:40:41.000Z</time>
      </trkpt>
      <trkpt lat="43.60971" lon="7.06982">
        <ele>122</ele>
        <time>2012-01-19T11:40:43.000Z</time>
      </trkpt>
      <trkpt lat="43.60972" lon="7.06996">
        <ele>124</ele>
        <time>2012-01-19T11:40:52.000Z</time>
      </trkpt>
      <trkpt lat="43.6097" lon="7.06997">
        <ele>124.19999694824</ele>
        <time>2012-01-19T11:40:54.000Z</time>
      </trkpt>
      <trkpt lat="43.60968" lon="7.07">
        <ele>124.59999847412</ele>
        <time>2012-01-19T11:40:57.000Z</time>
      </trkpt>
      <trkpt lat="43.60971" lon="7.07004">
        <ele>124.59999847412</ele>
        <time>2012-01-19T11:41:03.000Z</time>
      </trkpt>
      <trkpt lat="43.60973" lon="7.07007">
        <ele>124.59999847412</ele>
        <time>2012-01-19T11:41:06.000Z</time>
      </trkpt>
      <trkpt lat="43.60976" lon="7.07011">
        <ele>124.59999847412</ele>
        <time>2012-01-19T11:41:11.000Z</time>
      </trkpt>
      <trkpt lat="43.60979" lon="7.07013">
        <ele>124.59999847412</ele>
        <time>2012-01-19T11:41:16.000Z</time>
      </trkpt>
      <trkpt lat="43.60981" lon="7.07012">
        <ele>124.59999847412</ele>
        <time>2012-01-19T11:41:18.000Z</time>
      </trkpt>
      <trkpt lat="43.60978" lon="7.07009">
        <ele>124.59999847412</ele>
        <time>2012-01-19T11:41:22.000Z</time>
      </trkpt>
      <trkpt lat="43.60976" lon="7.0701">
        <ele>124.59999847412</ele>
        <time>2012-01-19T11:41:23.000Z</time>
      </trkpt>
      <trkpt lat="43.60966" lon="7.07003">
        <ele>124.59999847412</ele>
        <time>2012-01-19T11:41:28.000Z</time>
      </trkpt>
      <trkpt lat="43.60954" lon="7.06995">
        <ele>123.59999847412</ele>
        <time>2012-01-19T11:41:34.000Z</time>
      </trkpt>
      <trkpt lat="43.60953" lon="7.06995">
        <ele>123.80000305176</ele>
        <time>2012-01-19T11:41:35.000Z</time>
      </trkpt>
      <trkpt lat="43.60944" lon="7.06995">
        <ele>123.59999847412</ele>
        <time>2012-01-19T11:41:39.000Z</time>
      </trkpt>
      <trkpt lat="43.60926" lon="7.06998">
        <ele>123.80000305176</ele>
        <time>2012-01-19T11:41:45.000Z</time>
      </trkpt>
      <trkpt lat="43.60923" lon="7.06998">
        <ele>123.80000305176</ele>
        <time>2012-01-19T11:41:46.000Z</time>
      </trkpt>
      <trkpt lat="43.60909" lon="7.06999">
        <ele>124.19999694824</ele>
        <time>2012-01-19T11:41:52.000Z</time>
      </trkpt>
      <trkpt lat="43.60904" lon="7.06997">
        <ele>124</ele>
        <time>2012-01-19T11:41:54.000Z</time>
      </trkpt>
      <trkpt lat="43.60896" lon="7.06991">
        <ele>123.80000305176</ele>
        <time>2012-01-19T11:41:57.000Z</time>
      </trkpt>
      <trkpt lat="43.60888" lon="7.06981">
        <ele>123.19999694824</ele>
        <time>2012-01-19T11:42:02.000Z</time>
      </trkpt>
      <trkpt lat="43.60884" lon="7.06973">
        <ele>122.80000305176</ele>
        <time>2012-01-19T11:42:08.000Z</time>
      </trkpt>
      <trkpt lat="43.60883" lon="7.06969">
        <ele>122.40000152588</ele>
        <time>2012-01-19T11:42:11.000Z</time>
      </trkpt>
      <trkpt lat="43.60882" lon="7.06962">
        <ele>121.80000305176</ele>
        <time>2012-01-19T11:42:15.000Z</time>
      </trkpt>
      <trkpt lat="43.6088" lon="7.06956">
        <ele>121.40000152588</ele>
        <time>2012-01-19T11:42:19.000Z</time>
      </trkpt>
      <trkpt lat="43.60879" lon="7.06956">
        <ele>121.40000152588</ele>
        <time>2012-01-19T11:42:21.000Z</time>
      </trkpt>
      <trkpt lat="43.60874" lon="7.06935">
        <ele>120</ele>
        <time>2012-01-19T11:43:03.000Z</time>
      </trkpt>
      <trkpt lat="43.60873" lon="7.06932">
        <ele>120</ele>
        <time>2012-01-19T11:43:11.000Z</time>
      </trkpt>
      <trkpt lat="43.60868" lon="7.06932">
        <ele>120.40000152588</ele>
        <time>2012-01-19T11:43:32.000Z</time>
      </trkpt>
      <trkpt lat="43.60874" lon="7.06936">
        <ele>120.19999694824</ele>
        <time>2012-01-19T11:44:06.000Z</time>
      </trkpt>
      <trkpt lat="43.60874" lon="7.06933">
        <ele>120</ele>
        <time>2012-01-19T11:44:18.000Z</time>
      </trkpt>
      <trkpt lat="43.60871" lon="7.06934">
        <ele>120.40000152588</ele>
        <time>2012-01-19T11:44:41.000Z</time>
      </trkpt>
      <trkpt lat="43.6087" lon="7.0694">
        <ele>120.80000305176</ele>
        <time>2012-01-19T11:44:46.000Z</time>
      </trkpt>
      <trkpt lat="43.6087" lon="7.06941">
        <ele>121</ele>
        <time>2012-01-19T11:44:47.000Z</time>
      </trkpt>
      <trkpt lat="43.60871" lon="7.06947">
        <ele>121.40000152588</ele>
        <time>2012-01-19T11:44:53.000Z</time>
      </trkpt>
      <trkpt lat="43.60872" lon="7.06948">
        <ele>121.40000152588</ele>
        <time>2012-01-19T11:44:59.000Z</time>
      </trkpt>
      <trkpt lat="43.60874" lon="7.06949">
        <ele>121.40000152588</ele>
        <time>2012-01-19T11:45:39.000Z</time>
      </trkpt>
      <trkpt lat="43.60873" lon="7.06945">
        <ele>121</ele>
        <time>2012-01-19T11:45:46.000Z</time>
      </trkpt>
      <trkpt lat="43.60872" lon="7.06939">
        <ele>120.59999847412</ele>
        <time>2012-01-19T11:45:55.000Z</time>
      </trkpt>
      <trkpt lat="43.60871" lon="7.06933">
        <ele>120.19999694824</ele>
        <time>2012-01-19T11:46:28.000Z</time>
      </trkpt>
      <trkpt lat="43.60872" lon="7.06935">
        <ele>120.40000152588</ele>
        <time>2012-01-19T11:46:36.000Z</time>
      </trkpt>
      <trkpt lat="43.60873" lon="7.06939">
        <ele>120.59999847412</ele>
        <time>2012-01-19T11:46:41.000Z</time>
      </trkpt>
      <trkpt lat="43.60873" lon="7.06941">
        <ele>120.80000305176</ele>
        <time>2012-01-19T11:46:52.000Z</time>
      </trkpt>
      <trkpt lat="43.60871" lon="7.06944">
        <ele>121</ele>
        <time>2012-01-19T11:47:06.000Z</time>
      </trkpt>
      <trkpt lat="43.60872" lon="7.06939">
        <ele>120.59999847412</ele>
        <time>2012-01-19T11:47:10.000Z</time>
      </trkpt>
      <trkpt lat="43.60872" lon="7.06936">
        <ele>120.40000152588</ele>
        <time>2012-01-19T11:47:17.000Z</time>
      </trkpt>
      <trkpt lat="43.60871" lon="7.06931">
        <ele>120.19999694824</ele>
        <time>2012-01-19T11:47:25.000Z</time>
      </trkpt>
      <trkpt lat="43.60871" lon="7.06934">
        <ele>120.19999694824</ele>
        <time>2012-01-19T11:47:35.000Z</time>
      </trkpt>
      <trkpt lat="43.60871" lon="7.06935">
        <ele>120.40000152588</ele>
        <time>2012-01-19T11:47:46.000Z</time>
      </trkpt>
      <trkpt lat="43.60871" lon="7.0693">
        <ele>120</ele>
        <time>2012-01-19T11:48:00.000Z</time>
      </trkpt>
      <trkpt lat="43.60869" lon="7.06932">
        <ele>120.40000152588</ele>
        <time>2012-01-19T11:48:08.000Z</time>
      </trkpt>
      <trkpt lat="43.60871" lon="7.06933">
        <ele>120.19999694824</ele>
        <time>2012-01-19T11:48:10.000Z</time>
      </trkpt>
      <trkpt lat="43.60872" lon="7.06932">
        <ele>120</ele>
        <time>2012-01-19T11:48:15.000Z</time>
      </trkpt>
      <trkpt lat="43.60869" lon="7.06931">
        <ele>120.19999694824</ele>
        <time>2012-01-19T11:50:20.000Z</time>
      </trkpt>
      <trkpt lat="43.6087" lon="7.0693">
        <ele>120</ele>
        <time>2012-01-19T11:50:33.000Z</time>
      </trkpt>
      <trkpt lat="43.60868" lon="7.06931">
        <ele>120.40000152588</ele>
        <time>2012-01-19T11:50:38.000Z</time>
      </trkpt>
      <trkpt lat="43.60867" lon="7.06931">
        <ele>120.40000152588</ele>
        <time>2012-01-19T11:50:44.000Z</time>
      </trkpt>
      <trkpt lat="43.6087" lon="7.06927">
        <ele>119.80000305176</ele>
        <time>2012-01-19T11:53:08.000Z</time>
      </trkpt>
      <trkpt lat="43.60875" lon="7.06926">
        <ele>119.19999694824</ele>
        <time>2012-01-19T11:54:12.000Z</time>
      </trkpt>
      <trkpt lat="43.60882" lon="7.06911">
        <ele>116.80000305176</ele>
        <time>2012-01-19T11:54:19.000Z</time>
      </trkpt>
      <trkpt lat="43.60888" lon="7.06897">
        <ele>113.80000305176</ele>
        <time>2012-01-19T11:54:25.000Z</time>
      </trkpt>
      <trkpt lat="43.60895" lon="7.06887">
        <ele>111.40000152588</ele>
        <time>2012-01-19T11:54:31.000Z</time>
      </trkpt>
      <trkpt lat="43.60897" lon="7.06879">
        <ele>109.80000305176</ele>
        <time>2012-01-19T11:54:36.000Z</time>
      </trkpt>
      <trkpt lat="43.60897" lon="7.06876">
        <ele>109.19999694824</ele>
        <time>2012-01-19T11:54:45.000Z</time>
      </trkpt>
      <trkpt lat="43.6089" lon="7.06866">
        <ele>108.40000152588</ele>
        <time>2012-01-19T11:54:50.000Z</time>
      </trkpt>
      <trkpt lat="43.60889" lon="7.06864">
        <ele>108.40000152588</ele>
        <time>2012-01-19T11:54:51.000Z</time>
      </trkpt>
      <trkpt lat="43.60884" lon="7.06852">
        <ele>107</ele>
        <time>2012-01-19T11:54:57.000Z</time>
      </trkpt>
      <trkpt lat="43.60886" lon="7.06841">
        <ele>105</ele>
        <time>2012-01-19T11:55:02.000Z</time>
      </trkpt>
      <trkpt lat="43.6089" lon="7.06827">
        <ele>102</ele>
        <time>2012-01-19T11:55:08.000Z</time>
      </trkpt>
      <trkpt lat="43.60892" lon="7.06821">
        <ele>100.59999847412</ele>
        <time>2012-01-19T11:55:13.000Z</time>
      </trkpt>
      <trkpt lat="43.60891" lon="7.06821">
        <ele>100.80000305176</ele>
        <time>2012-01-19T11:55:14.000Z</time>
      </trkpt>
      <trkpt lat="43.6089" lon="7.0682">
        <ele>100.80000305176</ele>
        <time>2012-01-19T11:55:15.000Z</time>
      </trkpt>
      <trkpt lat="43.60886" lon="7.06812">
        <ele>100.19999694824</ele>
        <time>2012-01-19T11:55:18.000Z</time>
      </trkpt>
      <trkpt lat="43.60879" lon="7.06806">
        <ele>100</ele>
        <time>2012-01-19T11:55:24.000Z</time>
      </trkpt>
      <trkpt lat="43.60872" lon="7.06799">
        <ele>100</ele>
        <time>2012-01-19T11:55:36.000Z</time>
      </trkpt>
      <trkpt lat="43.60857" lon="7.0679">
        <ele>100.59999847412</ele>
        <time>2012-01-19T11:55:42.000Z</time>
      </trkpt>
      <trkpt lat="43.60844" lon="7.06783">
        <ele>101.19999694824</ele>
        <time>2012-01-19T11:55:48.000Z</time>
      </trkpt>
      <trkpt lat="43.6083" lon="7.06776">
        <ele>101.80000305176</ele>
        <time>2012-01-19T11:55:54.000Z</time>
      </trkpt>
      <trkpt lat="43.60812" lon="7.06763">
        <ele>100.19999694824</ele>
        <time>2012-01-19T11:56:01.000Z</time>
      </trkpt>
      <trkpt lat="43.60796" lon="7.06749">
        <ele>98.199996948242</ele>
        <time>2012-01-19T11:56:08.000Z</time>
      </trkpt>
      <trkpt lat="43.60784" lon="7.0674">
        <ele>97.800003051758</ele>
        <time>2012-01-19T11:56:13.000Z</time>
      </trkpt>
      <trkpt lat="43.60771" lon="7.06731">
        <ele>97.199996948242</ele>
        <time>2012-01-19T11:56:18.000Z</time>
      </trkpt>
      <trkpt lat="43.60759" lon="7.06711">
        <ele>95.400001525879</ele>
        <time>2012-01-19T11:56:25.000Z</time>
      </trkpt>
      <trkpt lat="43.60752" lon="7.06691">
        <ele>93.599998474121</ele>
        <time>2012-01-19T11:56:31.000Z</time>
      </trkpt>
      <trkpt lat="43.60743" lon="7.06689">
        <ele>93.400001525879</ele>
        <time>2012-01-19T11:56:35.000Z</time>
      </trkpt>
      <trkpt lat="43.6074" lon="7.06683">
        <ele>92.800003051758</ele>
        <time>2012-01-19T11:56:38.000Z</time>
      </trkpt>
      <trkpt lat="43.60737" lon="7.06682">
        <ele>92.599998474121</ele>
        <time>2012-01-19T11:56:40.000Z</time>
      </trkpt>
      <trkpt lat="43.60735" lon="7.06691">
        <ele>93.599998474121</ele>
        <time>2012-01-19T11:56:44.000Z</time>
      </trkpt>
      <trkpt lat="43.60731" lon="7.06707">
        <ele>95</ele>
        <time>2012-01-19T11:56:49.000Z</time>
      </trkpt>
      <trkpt lat="43.60722" lon="7.06727">
        <ele>96.400001525879</ele>
        <time>2012-01-19T11:56:56.000Z</time>
      </trkpt>
      <trkpt lat="43.60717" lon="7.06734">
        <ele>96.800003051758</ele>
        <time>2012-01-19T11:57:00.000Z</time>
      </trkpt>
      <trkpt lat="43.60716" lon="7.06735">
        <ele>96.800003051758</ele>
        <time>2012-01-19T11:57:02.000Z</time>
      </trkpt>
      <trkpt lat="43.60718" lon="7.06735">
        <ele>96.800003051758</ele>
        <time>2012-01-19T11:57:06.000Z</time>
      </trkpt>
      <trkpt lat="43.60723" lon="7.06724">
        <ele>96.199996948242</ele>
        <time>2012-01-19T11:57:11.000Z</time>
      </trkpt>
      <trkpt lat="43.60725" lon="7.06721">
        <ele>96</ele>
        <time>2012-01-19T11:57:12.000Z</time>
      </trkpt>
      <trkpt lat="43.60735" lon="7.067">
        <ele>94.400001525879</ele>
        <time>2012-01-19T11:57:17.000Z</time>
      </trkpt>
      <trkpt lat="43.60744" lon="7.06673">
        <ele>91.800003051758</ele>
        <time>2012-01-19T11:57:22.000Z</time>
      </trkpt>
      <trkpt lat="43.60748" lon="7.06661">
        <ele>90.800003051758</ele>
        <time>2012-01-19T11:57:24.000Z</time>
      </trkpt>
      <trkpt lat="43.60751" lon="7.06656">
        <ele>90.599998474121</ele>
        <time>2012-01-19T11:57:25.000Z</time>
      </trkpt>
      <trkpt lat="43.60767" lon="7.06638">
        <ele>89.599998474121</ele>
        <time>2012-01-19T11:57:29.000Z</time>
      </trkpt>
      <trkpt lat="43.60784" lon="7.06635">
        <ele>89.400001525879</ele>
        <time>2012-01-19T11:57:33.000Z</time>
      </trkpt>
      <trkpt lat="43.60796" lon="7.06651">
        <ele>89</ele>
        <time>2012-01-19T11:57:37.000Z</time>
      </trkpt>
      <trkpt lat="43.60805" lon="7.06675">
        <ele>89.400001525879</ele>
        <time>2012-01-19T11:57:41.000Z</time>
      </trkpt>
      <trkpt lat="43.60808" lon="7.06681">
        <ele>89.800003051758</ele>
        <time>2012-01-19T11:57:42.000Z</time>
      </trkpt>
      <trkpt lat="43.60821" lon="7.06703">
        <ele>91.800003051758</ele>
        <time>2012-01-19T11:57:46.000Z</time>
      </trkpt>
      <trkpt lat="43.60825" lon="7.06707">
        <ele>92.199996948242</ele>
        <time>2012-01-19T11:57:47.000Z</time>
      </trkpt>
      <trkpt lat="43.60834" lon="7.06716">
        <ele>92.800003051758</ele>
        <time>2012-01-19T11:57:49.000Z</time>
      </trkpt>
      <trkpt lat="43.60847" lon="7.06725">
        <ele>92.599998474121</ele>
        <time>2012-01-19T11:57:52.000Z</time>
      </trkpt>
      <trkpt lat="43.60851" lon="7.06727">
        <ele>92.199996948242</ele>
        <time>2012-01-19T11:57:53.000Z</time>
      </trkpt>
      <trkpt lat="43.60859" lon="7.06731">
        <ele>91.800003051758</ele>
        <time>2012-01-19T11:57:55.000Z</time>
      </trkpt>
      <trkpt lat="43.60867" lon="7.06736">
        <ele>91.199996948242</ele>
        <time>2012-01-19T11:57:58.000Z</time>
      </trkpt>
      <trkpt lat="43.6087" lon="7.06737">
        <ele>90.800003051758</ele>
        <time>2012-01-19T11:57:59.000Z</time>
      </trkpt>
      <trkpt lat="43.60891" lon="7.06742">
        <ele>88.400001525879</ele>
        <time>2012-01-19T11:58:06.000Z</time>
      </trkpt>
      <trkpt lat="43.60913" lon="7.06744">
        <ele>85.400001525879</ele>
        <time>2012-01-19T11:58:11.000Z</time>
      </trkpt>
      <trkpt lat="43.60918" lon="7.06744">
        <ele>85</ele>
        <time>2012-01-19T11:58:12.000Z</time>
      </trkpt>
      <trkpt lat="43.60933" lon="7.06748">
        <ele>84.599998474121</ele>
        <time>2012-01-19T11:58:17.000Z</time>
      </trkpt>
      <trkpt lat="43.60942" lon="7.0675">
        <ele>84.400001525879</ele>
        <time>2012-01-19T11:58:21.000Z</time>
      </trkpt>
      <trkpt lat="43.60943" lon="7.06749">
        <ele>84.400001525879</ele>
        <time>2012-01-19T11:58:22.000Z</time>
      </trkpt>
      <trkpt lat="43.60938" lon="7.0674">
        <ele>84.800003051758</ele>
        <time>2012-01-19T11:58:26.000Z</time>
      </trkpt>
      <trkpt lat="43.60935" lon="7.06738">
        <ele>85</ele>
        <time>2012-01-19T11:58:29.000Z</time>
      </trkpt>
      <trkpt lat="43.60933" lon="7.06737">
        <ele>85</ele>
        <time>2012-01-19T11:58:31.000Z</time>
      </trkpt>
      <trkpt lat="43.60932" lon="7.06736">
        <ele>85</ele>
        <time>2012-01-19T11:58:33.000Z</time>
      </trkpt>
      <trkpt lat="43.60929" lon="7.06734">
        <ele>85</ele>
        <time>2012-01-19T11:58:37.000Z</time>
      </trkpt>
      <trkpt lat="43.60929" lon="7.06733">
        <ele>85</ele>
        <time>2012-01-19T11:58:38.000Z</time>
      </trkpt>
      <trkpt lat="43.60929" lon="7.06725">
        <ele>85.199996948242</ele>
        <time>2012-01-19T11:58:42.000Z</time>
      </trkpt>
      <trkpt lat="43.60928" lon="7.06708">
        <ele>85.400001525879</ele>
        <time>2012-01-19T11:58:48.000Z</time>
      </trkpt>
      <trkpt lat="43.60929" lon="7.0669">
        <ele>85.800003051758</ele>
        <time>2012-01-19T11:58:54.000Z</time>
      </trkpt>
      <trkpt lat="43.60934" lon="7.06683">
        <ele>86.400001525879</ele>
        <time>2012-01-19T11:58:57.000Z</time>
      </trkpt>
      <trkpt lat="43.60937" lon="7.06681">
        <ele>86.800003051758</ele>
        <time>2012-01-19T11:58:59.000Z</time>
      </trkpt>
      <trkpt lat="43.60949" lon="7.06677">
        <ele>88</ele>
        <time>2012-01-19T11:59:06.000Z</time>
      </trkpt>
      <trkpt lat="43.60962" lon="7.06678">
        <ele>89.199996948242</ele>
        <time>2012-01-19T11:59:13.000Z</time>
      </trkpt>
      <trkpt lat="43.60974" lon="7.0668">
        <ele>90</ele>
        <time>2012-01-19T11:59:20.000Z</time>
      </trkpt>
      <trkpt lat="43.6099" lon="7.06687">
        <ele>90.599998474121</ele>
        <time>2012-01-19T11:59:29.000Z</time>
      </trkpt>
      <trkpt lat="43.61005" lon="7.06694">
        <ele>90.599998474121</ele>
        <time>2012-01-19T11:59:37.000Z</time>
      </trkpt>
      <trkpt lat="43.61016" lon="7.06694">
        <ele>91.199996948242</ele>
        <time>2012-01-19T11:59:44.000Z</time>
      </trkpt>
      <trkpt lat="43.61023" lon="7.06689">
        <ele>92.199996948242</ele>
        <time>2012-01-19T11:59:49.000Z</time>
      </trkpt>
      <trkpt lat="43.61025" lon="7.06685">
        <ele>92.800003051758</ele>
        <time>2012-01-19T11:59:51.000Z</time>
      </trkpt>
      <trkpt lat="43.61024" lon="7.06681">
        <ele>93.400001525879</ele>
        <time>2012-01-19T11:59:53.000Z</time>
      </trkpt>
      <trkpt lat="43.61022" lon="7.06675">
        <ele>94.199996948242</ele>
        <time>2012-01-19T11:59:56.000Z</time>
      </trkpt>
      <trkpt lat="43.61021" lon="7.06673">
        <ele>94.400001525879</ele>
        <time>2012-01-19T11:59:57.000Z</time>
      </trkpt>
      <trkpt lat="43.61012" lon="7.06666">
        <ele>95</ele>
        <time>2012-01-19T12:00:03.000Z</time>
      </trkpt>
      <trkpt lat="43.60999" lon="7.06654">
        <ele>96</ele>
        <time>2012-01-19T12:00:09.000Z</time>
      </trkpt>
      <trkpt lat="43.60989" lon="7.06636">
        <ele>98</ele>
        <time>2012-01-19T12:00:16.000Z</time>
      </trkpt>
      <trkpt lat="43.60984" lon="7.0662">
        <ele>100</ele>
        <time>2012-01-19T12:00:22.000Z</time>
      </trkpt>
      <trkpt lat="43.60975" lon="7.06606">
        <ele>101</ele>
        <time>2012-01-19T12:00:28.000Z</time>
      </trkpt>
      <trkpt lat="43.60958" lon="7.06596">
        <ele>100.40000152588</ele>
        <time>2012-01-19T12:00:34.000Z</time>
      </trkpt>
      <trkpt lat="43.60938" lon="7.06593">
        <ele>98.400001525879</ele>
        <time>2012-01-19T12:00:38.000Z</time>
      </trkpt>
      <trkpt lat="43.60934" lon="7.06591">
        <ele>98.199996948242</ele>
        <time>2012-01-19T12:00:39.000Z</time>
      </trkpt>
      <trkpt lat="43.60914" lon="7.0658">
        <ele>97.400001525879</ele>
        <time>2012-01-19T12:00:44.000Z</time>
      </trkpt>
      <trkpt lat="43.6091" lon="7.06577">
        <ele>97.599998474121</ele>
        <time>2012-01-19T12:00:45.000Z</time>
      </trkpt>
      <trkpt lat="43.60892" lon="7.0656">
        <ele>98.400001525879</ele>
        <time>2012-01-19T12:00:50.000Z</time>
      </trkpt>
      <trkpt lat="43.60888" lon="7.06555">
        <ele>98.800003051758</ele>
        <time>2012-01-19T12:00:51.000Z</time>
      </trkpt>
      <trkpt lat="43.60875" lon="7.06534">
        <ele>99.800003051758</ele>
        <time>2012-01-19T12:00:55.000Z</time>
      </trkpt>
      <trkpt lat="43.60866" lon="7.06516">
        <ele>100.80000305176</ele>
        <time>2012-01-19T12:00:58.000Z</time>
      </trkpt>
      <trkpt lat="43.60859" lon="7.06497">
        <ele>101.80000305176</ele>
        <time>2012-01-19T12:01:01.000Z</time>
      </trkpt>
      <trkpt lat="43.60857" lon="7.06486">
        <ele>102.80000305176</ele>
        <time>2012-01-19T12:01:03.000Z</time>
      </trkpt>
      <trkpt lat="43.60857" lon="7.06482">
        <ele>103.40000152588</ele>
        <time>2012-01-19T12:01:04.000Z</time>
      </trkpt>
      <trkpt lat="43.60856" lon="7.06473">
        <ele>104.40000152588</ele>
        <time>2012-01-19T12:01:07.000Z</time>
      </trkpt>
      <trkpt lat="43.60847" lon="7.06464">
        <ele>104</ele>
        <time>2012-01-19T12:01:11.000Z</time>
      </trkpt>
      <trkpt lat="43.60831" lon="7.06448">
        <ele>103.80000305176</ele>
        <time>2012-01-19T12:01:17.000Z</time>
      </trkpt>
      <trkpt lat="43.60822" lon="7.06432">
        <ele>106.19999694824</ele>
        <time>2012-01-19T12:01:23.000Z</time>
      </trkpt>
      <trkpt lat="43.60822" lon="7.06423">
        <ele>107.40000152588</ele>
        <time>2012-01-19T12:01:26.000Z</time>
      </trkpt>
      <trkpt lat="43.60824" lon="7.06419">
        <ele>107.80000305176</ele>
        <time>2012-01-19T12:01:28.000Z</time>
      </trkpt>
      <trkpt lat="43.60832" lon="7.06423">
        <ele>107.19999694824</ele>
        <time>2012-01-19T12:01:32.000Z</time>
      </trkpt>
      <trkpt lat="43.60835" lon="7.06425">
        <ele>107.19999694824</ele>
        <time>2012-01-19T12:01:33.000Z</time>
      </trkpt>
      <trkpt lat="43.6085" lon="7.06438">
        <ele>108</ele>
        <time>2012-01-19T12:01:38.000Z</time>
      </trkpt>
      <trkpt lat="43.60868" lon="7.06453">
        <ele>109</ele>
        <time>2012-01-19T12:01:44.000Z</time>
      </trkpt>
      <trkpt lat="43.60871" lon="7.06455">
        <ele>109.19999694824</ele>
        <time>2012-01-19T12:01:45.000Z</time>
      </trkpt>
      <trkpt lat="43.60882" lon="7.06473">
        <ele>108.59999847412</ele>
        <time>2012-01-19T12:01:51.000Z</time>
      </trkpt>
      <trkpt lat="43.60882" lon="7.0648">
        <ele>107.80000305176</ele>
        <time>2012-01-19T12:01:53.000Z</time>
      </trkpt>
      <trkpt lat="43.60885" lon="7.06489">
        <ele>107.19999694824</ele>
        <time>2012-01-19T12:01:56.000Z</time>
      </trkpt>
      <trkpt lat="43.60891" lon="7.06496">
        <ele>107.19999694824</ele>
        <time>2012-01-19T12:02:00.000Z</time>
      </trkpt>
      <trkpt lat="43.60894" lon="7.06498">
        <ele>107.59999847412</ele>
        <time>2012-01-19T12:02:02.000Z</time>
      </trkpt>
      <trkpt lat="43.60906" lon="7.06506">
        <ele>108.19999694824</ele>
        <time>2012-01-19T12:02:08.000Z</time>
      </trkpt>
      <trkpt lat="43.60917" lon="7.06512">
        <ele>109.19999694824</ele>
        <time>2012-01-19T12:02:14.000Z</time>
      </trkpt>
      <trkpt lat="43.60925" lon="7.0651">
        <ele>110.59999847412</ele>
        <time>2012-01-19T12:02:19.000Z</time>
      </trkpt>
      <trkpt lat="43.60925" lon="7.06508">
        <ele>111</ele>
        <time>2012-01-19T12:02:20.000Z</time>
      </trkpt>
      <trkpt lat="43.60923" lon="7.06501">
        <ele>111.80000305176</ele>
        <time>2012-01-19T12:02:23.000Z</time>
      </trkpt>
      <trkpt lat="43.6092" lon="7.06497">
        <ele>112</ele>
        <time>2012-01-19T12:02:25.000Z</time>
      </trkpt>
      <trkpt lat="43.60913" lon="7.06485">
        <ele>112.40000152588</ele>
        <time>2012-01-19T12:02:29.000Z</time>
      </trkpt>
      <trkpt lat="43.6091" lon="7.06465">
        <ele>114.40000152588</ele>
        <time>2012-01-19T12:02:35.000Z</time>
      </trkpt>
      <trkpt lat="43.6091" lon="7.06446">
        <ele>117</ele>
        <time>2012-01-19T12:02:41.000Z</time>
      </trkpt>
      <trkpt lat="43.60908" lon="7.06426">
        <ele>119.19999694824</ele>
        <time>2012-01-19T12:02:48.000Z</time>
      </trkpt>
      <trkpt lat="43.60906" lon="7.0641">
        <ele>121</ele>
        <time>2012-01-19T12:02:55.000Z</time>
      </trkpt>
      <trkpt lat="43.60901" lon="7.06399">
        <ele>121.40000152588</ele>
        <time>2012-01-19T12:03:01.000Z</time>
      </trkpt>
      <trkpt lat="43.60896" lon="7.06384">
        <ele>122.19999694824</ele>
        <time>2012-01-19T12:03:08.000Z</time>
      </trkpt>
      <trkpt lat="43.60893" lon="7.06366">
        <ele>123.80000305176</ele>
        <time>2012-01-19T12:03:16.000Z</time>
      </trkpt>
      <trkpt lat="43.60891" lon="7.06352">
        <ele>125</ele>
        <time>2012-01-19T12:03:22.000Z</time>
      </trkpt>
      <trkpt lat="43.60885" lon="7.06327">
        <ele>126.19999694824</ele>
        <time>2012-01-19T12:03:30.000Z</time>
      </trkpt>
      <trkpt lat="43.60877" lon="7.063">
        <ele>126.19999694824</ele>
        <time>2012-01-19T12:03:36.000Z</time>
      </trkpt>
      <trkpt lat="43.60876" lon="7.06294">
        <ele>126.40000152588</ele>
        <time>2012-01-19T12:03:37.000Z</time>
      </trkpt>
      <trkpt lat="43.6087" lon="7.06268">
        <ele>126.80000305176</ele>
        <time>2012-01-19T12:03:41.000Z</time>
      </trkpt>
      <trkpt lat="43.6087" lon="7.06262">
        <ele>127.19999694824</ele>
        <time>2012-01-19T12:03:42.000Z</time>
      </trkpt>
      <trkpt lat="43.60867" lon="7.06231">
        <ele>128.80000305176</ele>
        <time>2012-01-19T12:03:46.000Z</time>
      </trkpt>
      <trkpt lat="43.60867" lon="7.06224">
        <ele>129.19999694824</ele>
        <time>2012-01-19T12:03:47.000Z</time>
      </trkpt>
      <trkpt lat="43.60865" lon="7.062">
        <ele>130.39999389648</ele>
        <time>2012-01-19T12:03:51.000Z</time>
      </trkpt>
      <trkpt lat="43.60867" lon="7.06197">
        <ele>130.60000610352</ele>
        <time>2012-01-19T12:03:52.000Z</time>
      </trkpt>
      <trkpt lat="43.60871" lon="7.06193">
        <ele>131</ele>
        <time>2012-01-19T12:03:54.000Z</time>
      </trkpt>
      <trkpt lat="43.60881" lon="7.06189">
        <ele>131.60000610352</ele>
        <time>2012-01-19T12:03:59.000Z</time>
      </trkpt>
      <trkpt lat="43.60882" lon="7.06189">
        <ele>131.60000610352</ele>
        <time>2012-01-19T12:04:00.000Z</time>
      </trkpt>
      <trkpt lat="43.6089" lon="7.06194">
        <ele>131.80000305176</ele>
        <time>2012-01-19T12:04:05.000Z</time>
      </trkpt>
      <trkpt lat="43.60894" lon="7.06197">
        <ele>132</ele>
        <time>2012-01-19T12:04:09.000Z</time>
      </trkpt>
      <trkpt lat="43.60895" lon="7.06201">
        <ele>131.80000305176</ele>
        <time>2012-01-19T12:04:11.000Z</time>
      </trkpt>
      <trkpt lat="43.60896" lon="7.062">
        <ele>132</ele>
        <time>2012-01-19T12:04:12.000Z</time>
      </trkpt>
      <trkpt lat="43.60903" lon="7.062">
        <ele>132.39999389648</ele>
        <time>2012-01-19T12:04:16.000Z</time>
      </trkpt>
      <trkpt lat="43.60912" lon="7.06195">
        <ele>132.80000305176</ele>
        <time>2012-01-19T12:04:21.000Z</time>
      </trkpt>
      <trkpt lat="43.60914" lon="7.06194">
        <ele>132.80000305176</ele>
        <time>2012-01-19T12:04:22.000Z</time>
      </trkpt>
      <trkpt lat="43.60926" lon="7.06193">
        <ele>133.19999694824</ele>
        <time>2012-01-19T12:04:28.000Z</time>
      </trkpt>
      <trkpt lat="43.60934" lon="7.06196">
        <ele>133.60000610352</ele>
        <time>2012-01-19T12:04:34.000Z</time>
      </trkpt>
      <trkpt lat="43.6095" lon="7.06199">
        <ele>134</ele>
        <time>2012-01-19T12:04:42.000Z</time>
      </trkpt>
      <trkpt lat="43.60966" lon="7.0619">
        <ele>134.19999694824</ele>
        <time>2012-01-19T12:04:48.000Z</time>
      </trkpt>
      <trkpt lat="43.60986" lon="7.06188">
        <ele>134.60000610352</ele>
        <time>2012-01-19T12:04:53.000Z</time>
      </trkpt>
      <trkpt lat="43.60996" lon="7.06182">
        <ele>134.60000610352</ele>
        <time>2012-01-19T12:04:57.000Z</time>
      </trkpt>
      <trkpt lat="43.61013" lon="7.06174">
        <ele>133.19999694824</ele>
        <time>2012-01-19T12:05:02.000Z</time>
      </trkpt>
      <trkpt lat="43.61035" lon="7.06167">
        <ele>131</ele>
        <time>2012-01-19T12:05:06.000Z</time>
      </trkpt>
      <trkpt lat="43.61041" lon="7.06165">
        <ele>130.60000610352</ele>
        <time>2012-01-19T12:05:07.000Z</time>
      </trkpt>
      <trkpt lat="43.61063" lon="7.06169">
        <ele>128.80000305176</ele>
        <time>2012-01-19T12:05:11.000Z</time>
      </trkpt>
      <trkpt lat="43.61069" lon="7.0617">
        <ele>128.39999389648</ele>
        <time>2012-01-19T12:05:12.000Z</time>
      </trkpt>
      <trkpt lat="43.61083" lon="7.06178">
        <ele>127.40000152588</ele>
        <time>2012-01-19T12:05:15.000Z</time>
      </trkpt>
      <trkpt lat="43.61092" lon="7.06182">
        <ele>127.40000152588</ele>
        <time>2012-01-19T12:05:17.000Z</time>
      </trkpt>
      <trkpt lat="43.61109" lon="7.06192">
        <ele>127.19999694824</ele>
        <time>2012-01-19T12:05:21.000Z</time>
      </trkpt>
      <trkpt lat="43.61111" lon="7.06197">
        <ele>127.19999694824</ele>
        <time>2012-01-19T12:05:22.000Z</time>
      </trkpt>
      <trkpt lat="43.61112" lon="7.0621">
        <ele>127</ele>
        <time>2012-01-19T12:05:25.000Z</time>
      </trkpt>
      <trkpt lat="43.61114" lon="7.06214">
        <ele>127</ele>
        <time>2012-01-19T12:05:26.000Z</time>
      </trkpt>
      <trkpt lat="43.61127" lon="7.06237">
        <ele>125.59999847412</ele>
        <time>2012-01-19T12:05:32.000Z</time>
      </trkpt>
      <trkpt lat="43.61143" lon="7.06241">
        <ele>124</ele>
        <time>2012-01-19T12:05:36.000Z</time>
      </trkpt>
      <trkpt lat="43.61165" lon="7.0624">
        <ele>122</ele>
        <time>2012-01-19T12:05:40.000Z</time>
      </trkpt>
      <trkpt lat="43.6117" lon="7.06242">
        <ele>122</ele>
        <time>2012-01-19T12:05:41.000Z</time>
      </trkpt>
      <trkpt lat="43.61187" lon="7.06255">
        <ele>123.40000152588</ele>
        <time>2012-01-19T12:05:45.000Z</time>
      </trkpt>
      <trkpt lat="43.6119" lon="7.06259">
        <ele>123.80000305176</ele>
        <time>2012-01-19T12:05:46.000Z</time>
      </trkpt>
      <trkpt lat="43.61197" lon="7.06274">
        <ele>124.40000152588</ele>
        <time>2012-01-19T12:05:49.000Z</time>
      </trkpt>
      <trkpt lat="43.61202" lon="7.06285">
        <ele>124.80000305176</ele>
        <time>2012-01-19T12:05:51.000Z</time>
      </trkpt>
      <trkpt lat="43.61213" lon="7.06307">
        <ele>125.80000305176</ele>
        <time>2012-01-19T12:05:55.000Z</time>
      </trkpt>
      <trkpt lat="43.61215" lon="7.06312">
        <ele>126</ele>
        <time>2012-01-19T12:05:56.000Z</time>
      </trkpt>
      <trkpt lat="43.61221" lon="7.06324">
        <ele>126.40000152588</ele>
        <time>2012-01-19T12:05:59.000Z</time>
      </trkpt>
      <trkpt lat="43.61226" lon="7.06337">
        <ele>126.59999847412</ele>
        <time>2012-01-19T12:06:02.000Z</time>
      </trkpt>
      <trkpt lat="43.6123" lon="7.06355">
        <ele>126.40000152588</ele>
        <time>2012-01-19T12:06:06.000Z</time>
      </trkpt>
      <trkpt lat="43.61234" lon="7.06383">
        <ele>125.59999847412</ele>
        <time>2012-01-19T12:06:11.000Z</time>
      </trkpt>
      <trkpt lat="43.61242" lon="7.06407">
        <ele>125</ele>
        <time>2012-01-19T12:06:16.000Z</time>
      </trkpt>
      <trkpt lat="43.6125" lon="7.06429">
        <ele>124</ele>
        <time>2012-01-19T12:06:21.000Z</time>
      </trkpt>
      <trkpt lat="43.61252" lon="7.06433">
        <ele>124</ele>
        <time>2012-01-19T12:06:22.000Z</time>
      </trkpt>
      <trkpt lat="43.61258" lon="7.06459">
        <ele>123</ele>
        <time>2012-01-19T12:06:26.000Z</time>
      </trkpt>
      <trkpt lat="43.61261" lon="7.06465">
        <ele>123</ele>
        <time>2012-01-19T12:06:27.000Z</time>
      </trkpt>
      <trkpt lat="43.61271" lon="7.06479">
        <ele>123.59999847412</ele>
        <time>2012-01-19T12:06:31.000Z</time>
      </trkpt>
      <trkpt lat="43.6128" lon="7.06486">
        <ele>124.59999847412</ele>
        <time>2012-01-19T12:06:34.000Z</time>
      </trkpt>
      <trkpt lat="43.61282" lon="7.0649">
        <ele>124.59999847412</ele>
        <time>2012-01-19T12:06:35.000Z</time>
      </trkpt>
      <trkpt lat="43.61285" lon="7.06494">
        <ele>125</ele>
        <time>2012-01-19T12:06:36.000Z</time>
      </trkpt>
      <trkpt lat="43.613" lon="7.06513">
        <ele>125</ele>
        <time>2012-01-19T12:06:41.000Z</time>
      </trkpt>
      <trkpt lat="43.61303" lon="7.06515">
        <ele>125.19999694824</ele>
        <time>2012-01-19T12:06:42.000Z</time>
      </trkpt>
      <trkpt lat="43.61322" lon="7.06529">
        <ele>126</ele>
        <time>2012-01-19T12:06:47.000Z</time>
      </trkpt>
      <trkpt lat="43.61325" lon="7.06531">
        <ele>126.19999694824</ele>
        <time>2012-01-19T12:06:48.000Z</time>
      </trkpt>
      <trkpt lat="43.61344" lon="7.06541">
        <ele>124.59999847412</ele>
        <time>2012-01-19T12:06:53.000Z</time>
      </trkpt>
      <trkpt lat="43.61349" lon="7.06541">
        <ele>124</ele>
        <time>2012-01-19T12:06:54.000Z</time>
      </trkpt>
      <trkpt lat="43.61368" lon="7.06543">
        <ele>121.80000305176</ele>
        <time>2012-01-19T12:06:59.000Z</time>
      </trkpt>
      <trkpt lat="43.61387" lon="7.06534">
        <ele>121.59999847412</ele>
        <time>2012-01-19T12:07:05.000Z</time>
      </trkpt>
      <trkpt lat="43.61401" lon="7.06521">
        <ele>123</ele>
        <time>2012-01-19T12:07:11.000Z</time>
      </trkpt>
      <trkpt lat="43.6141" lon="7.06503">
        <ele>125.80000305176</ele>
        <time>2012-01-19T12:07:17.000Z</time>
      </trkpt>
      <trkpt lat="43.61421" lon="7.0648">
        <ele>128.19999694824</ele>
        <time>2012-01-19T12:07:25.000Z</time>
      </trkpt>
      <trkpt lat="43.61431" lon="7.06456">
        <ele>129</ele>
        <time>2012-01-19T12:07:33.000Z</time>
      </trkpt>
      <trkpt lat="43.61436" lon="7.06436">
        <ele>130.19999694824</ele>
        <time>2012-01-19T12:07:40.000Z</time>
      </trkpt>
      <trkpt lat="43.61438" lon="7.06421">
        <ele>131.39999389648</ele>
        <time>2012-01-19T12:07:46.000Z</time>
      </trkpt>
      <trkpt lat="43.61443" lon="7.06397">
        <ele>131</ele>
        <time>2012-01-19T12:07:54.000Z</time>
      </trkpt>
      <trkpt lat="43.61446" lon="7.06381">
        <ele>130</ele>
        <time>2012-01-19T12:07:59.000Z</time>
      </trkpt>
      <trkpt lat="43.61447" lon="7.06372">
        <ele>129.60000610352</ele>
        <time>2012-01-19T12:08:03.000Z</time>
      </trkpt>
      <trkpt lat="43.61447" lon="7.06368">
        <ele>129.80000305176</ele>
        <time>2012-01-19T12:08:05.000Z</time>
      </trkpt>
      <trkpt lat="43.61449" lon="7.06348">
        <ele>129.60000610352</ele>
        <time>2012-01-19T12:08:10.000Z</time>
      </trkpt>
      <trkpt lat="43.61443" lon="7.06323">
        <ele>130.60000610352</ele>
        <time>2012-01-19T12:08:14.000Z</time>
      </trkpt>
      <trkpt lat="43.61442" lon="7.06317">
        <ele>130.19999694824</ele>
        <time>2012-01-19T12:08:15.000Z</time>
      </trkpt>
      <trkpt lat="43.61431" lon="7.06295">
        <ele>130.39999389648</ele>
        <time>2012-01-19T12:08:19.000Z</time>
      </trkpt>
      <trkpt lat="43.61427" lon="7.0629">
        <ele>130.80000305176</ele>
        <time>2012-01-19T12:08:20.000Z</time>
      </trkpt>
      <trkpt lat="43.61409" lon="7.06272">
        <ele>131.19999694824</ele>
        <time>2012-01-19T12:08:24.000Z</time>
      </trkpt>
      <trkpt lat="43.61398" lon="7.0626">
        <ele>130.60000610352</ele>
        <time>2012-01-19T12:08:27.000Z</time>
      </trkpt>
      <trkpt lat="43.61384" lon="7.06243">
        <ele>130.19999694824</ele>
        <time>2012-01-19T12:08:31.000Z</time>
      </trkpt>
      <trkpt lat="43.61369" lon="7.06226">
        <ele>130.60000610352</ele>
        <time>2012-01-19T12:08:35.000Z</time>
      </trkpt>
      <trkpt lat="43.61362" lon="7.0622">
        <ele>131.19999694824</ele>
        <time>2012-01-19T12:08:37.000Z</time>
      </trkpt>
      <trkpt lat="43.61351" lon="7.06209">
        <ele>132.60000610352</ele>
        <time>2012-01-19T12:08:40.000Z</time>
      </trkpt>
      <trkpt lat="43.61341" lon="7.06197">
        <ele>133.60000610352</ele>
        <time>2012-01-19T12:08:43.000Z</time>
      </trkpt>
      <trkpt lat="43.61325" lon="7.06178">
        <ele>133.80000305176</ele>
        <time>2012-01-19T12:08:48.000Z</time>
      </trkpt>
      <trkpt lat="43.61318" lon="7.06172">
        <ele>133.19999694824</ele>
        <time>2012-01-19T12:08:50.000Z</time>
      </trkpt>
      <trkpt lat="43.61314" lon="7.06169">
        <ele>133.19999694824</ele>
        <time>2012-01-19T12:08:51.000Z</time>
      </trkpt>
      <trkpt lat="43.61311" lon="7.06164">
        <ele>132.80000305176</ele>
        <time>2012-01-19T12:08:52.000Z</time>
      </trkpt>
      <trkpt lat="43.61303" lon="7.06149">
        <ele>132</ele>
        <time>2012-01-19T12:08:55.000Z</time>
      </trkpt>
      <trkpt lat="43.61286" lon="7.06131">
        <ele>131.39999389648</ele>
        <time>2012-01-19T12:09:00.000Z</time>
      </trkpt>
      <trkpt lat="43.61281" lon="7.06126">
        <ele>131.39999389648</ele>
        <time>2012-01-19T12:09:02.000Z</time>
      </trkpt>
      <trkpt lat="43.61275" lon="7.06118">
        <ele>131.39999389648</ele>
        <time>2012-01-19T12:09:05.000Z</time>
      </trkpt>
      <trkpt lat="43.61258" lon="7.061">
        <ele>131.80000305176</ele>
        <time>2012-01-19T12:09:11.000Z</time>
      </trkpt>
      <trkpt lat="43.6124" lon="7.06087">
        <ele>132</ele>
        <time>2012-01-19T12:09:17.000Z</time>
      </trkpt>
      <trkpt lat="43.61238" lon="7.06085">
        <ele>131.80000305176</ele>
        <time>2012-01-19T12:09:18.000Z</time>
      </trkpt>
      <trkpt lat="43.61223" lon="7.06069">
        <ele>131</ele>
        <time>2012-01-19T12:09:24.000Z</time>
      </trkpt>
      <trkpt lat="43.61218" lon="7.06063">
        <ele>130.80000305176</ele>
        <time>2012-01-19T12:09:26.000Z</time>
      </trkpt>
      <trkpt lat="43.61203" lon="7.06047">
        <ele>130.60000610352</ele>
        <time>2012-01-19T12:09:31.000Z</time>
      </trkpt>
      <trkpt lat="43.61199" lon="7.06039">
        <ele>130.39999389648</ele>
        <time>2012-01-19T12:09:33.000Z</time>
      </trkpt>
      <trkpt lat="43.61194" lon="7.06017">
        <ele>130.39999389648</ele>
        <time>2012-01-19T12:09:38.000Z</time>
      </trkpt>
      <trkpt lat="43.61185" lon="7.05993">
        <ele>130.39999389648</ele>
        <time>2012-01-19T12:09:44.000Z</time>
      </trkpt>
      <trkpt lat="43.61183" lon="7.05986">
        <ele>130.60000610352</ele>
        <time>2012-01-19T12:09:46.000Z</time>
      </trkpt>
      <trkpt lat="43.61178" lon="7.05969">
        <ele>130.60000610352</ele>
        <time>2012-01-19T12:09:52.000Z</time>
      </trkpt>
      <trkpt lat="43.61176" lon="7.05949">
        <ele>130.39999389648</ele>
        <time>2012-01-19T12:09:58.000Z</time>
      </trkpt>
      <trkpt lat="43.61172" lon="7.05921">
        <ele>130.39999389648</ele>
        <time>2012-01-19T12:10:04.000Z</time>
      </trkpt>
      <trkpt lat="43.61172" lon="7.05917">
        <ele>130.39999389648</ele>
        <time>2012-01-19T12:10:05.000Z</time>
      </trkpt>
      <trkpt lat="43.6117" lon="7.05892">
        <ele>129.39999389648</ele>
        <time>2012-01-19T12:10:10.000Z</time>
      </trkpt>
      <trkpt lat="43.61171" lon="7.05883">
        <ele>128.80000305176</ele>
        <time>2012-01-19T12:10:12.000Z</time>
      </trkpt>
      <trkpt lat="43.61179" lon="7.05864">
        <ele>126.80000305176</ele>
        <time>2012-01-19T12:10:17.000Z</time>
      </trkpt>
      <trkpt lat="43.61187" lon="7.05846">
        <ele>124.59999847412</ele>
        <time>2012-01-19T12:10:21.000Z</time>
      </trkpt>
      <trkpt lat="43.61195" lon="7.05823">
        <ele>122.80000305176</ele>
        <time>2012-01-19T12:10:25.000Z</time>
      </trkpt>
      <trkpt lat="43.61199" lon="7.05812">
        <ele>122</ele>
        <time>2012-01-19T12:10:27.000Z</time>
      </trkpt>
      <trkpt lat="43.61202" lon="7.05798">
        <ele>121.19999694824</ele>
        <time>2012-01-19T12:10:29.000Z</time>
      </trkpt>
      <trkpt lat="43.61202" lon="7.05783">
        <ele>121</ele>
        <time>2012-01-19T12:10:31.000Z</time>
      </trkpt>
      <trkpt lat="43.61198" lon="7.05762">
        <ele>121.19999694824</ele>
        <time>2012-01-19T12:10:34.000Z</time>
      </trkpt>
      <trkpt lat="43.61195" lon="7.0575">
        <ele>121.40000152588</ele>
        <time>2012-01-19T12:10:36.000Z</time>
      </trkpt>
      <trkpt lat="43.61193" lon="7.05744">
        <ele>121.40000152588</ele>
        <time>2012-01-19T12:10:37.000Z</time>
      </trkpt>
      <trkpt lat="43.61187" lon="7.05716">
        <ele>120.80000305176</ele>
        <time>2012-01-19T12:10:41.000Z</time>
      </trkpt>
      <trkpt lat="43.61185" lon="7.05691">
        <ele>119.80000305176</ele>
        <time>2012-01-19T12:10:45.000Z</time>
      </trkpt>
      <trkpt lat="43.61183" lon="7.05679">
        <ele>119.40000152588</ele>
        <time>2012-01-19T12:10:47.000Z</time>
      </trkpt>
      <trkpt lat="43.61179" lon="7.05649">
        <ele>119</ele>
        <time>2012-01-19T12:10:52.000Z</time>
      </trkpt>
      <trkpt lat="43.61177" lon="7.05638">
        <ele>119</ele>
        <time>2012-01-19T12:10:54.000Z</time>
      </trkpt>
      <trkpt lat="43.61174" lon="7.05625">
        <ele>119</ele>
        <time>2012-01-19T12:10:56.000Z</time>
      </trkpt>
      <trkpt lat="43.61166" lon="7.05609">
        <ele>119</ele>
        <time>2012-01-19T12:10:59.000Z</time>
      </trkpt>
      <trkpt lat="43.61163" lon="7.05604">
        <ele>119.40000152588</ele>
        <time>2012-01-19T12:11:00.000Z</time>
      </trkpt>
      <trkpt lat="43.61157" lon="7.05594">
        <ele>120</ele>
        <time>2012-01-19T12:11:02.000Z</time>
      </trkpt>
      <trkpt lat="43.61144" lon="7.05578">
        <ele>121</ele>
        <time>2012-01-19T12:11:06.000Z</time>
      </trkpt>
      <trkpt lat="43.61135" lon="7.05567">
        <ele>121.59999847412</ele>
        <time>2012-01-19T12:11:09.000Z</time>
      </trkpt>
      <trkpt lat="43.61126" lon="7.05556">
        <ele>122</ele>
        <time>2012-01-19T12:11:12.000Z</time>
      </trkpt>
      <trkpt lat="43.6111" lon="7.05542">
        <ele>122.80000305176</ele>
        <time>2012-01-19T12:11:18.000Z</time>
      </trkpt>
      <trkpt lat="43.61107" lon="7.0554">
        <ele>122.80000305176</ele>
        <time>2012-01-19T12:11:19.000Z</time>
      </trkpt>
      <trkpt lat="43.61091" lon="7.05536">
        <ele>123.80000305176</ele>
        <time>2012-01-19T12:11:25.000Z</time>
      </trkpt>
      <trkpt lat="43.61072" lon="7.05533">
        <ele>124.59999847412</ele>
        <time>2012-01-19T12:11:32.000Z</time>
      </trkpt>
      <trkpt lat="43.61052" lon="7.05532">
        <ele>125.59999847412</ele>
        <time>2012-01-19T12:11:39.000Z</time>
      </trkpt>
      <trkpt lat="43.61049" lon="7.05532">
        <ele>125.59999847412</ele>
        <time>2012-01-19T12:11:40.000Z</time>
      </trkpt>
      <trkpt lat="43.61029" lon="7.0553">
        <ele>126.40000152588</ele>
        <time>2012-01-19T12:11:47.000Z</time>
      </trkpt>
      <trkpt lat="43.61024" lon="7.05528">
        <ele>126.59999847412</ele>
        <time>2012-01-19T12:11:49.000Z</time>
      </trkpt>
      <trkpt lat="43.61008" lon="7.05519">
        <ele>126.59999847412</ele>
        <time>2012-01-19T12:11:55.000Z</time>
      </trkpt>
      <trkpt lat="43.60995" lon="7.05509">
        <ele>126</ele>
        <time>2012-01-19T12:12:00.000Z</time>
      </trkpt>
      <trkpt lat="43.60979" lon="7.05499">
        <ele>125.40000152588</ele>
        <time>2012-01-19T12:12:05.000Z</time>
      </trkpt>
      <trkpt lat="43.6096" lon="7.05493">
        <ele>125.80000305176</ele>
        <time>2012-01-19T12:12:10.000Z</time>
      </trkpt>
      <trkpt lat="43.60952" lon="7.05493">
        <ele>126</ele>
        <time>2012-01-19T12:12:12.000Z</time>
      </trkpt>
      <trkpt lat="43.60934" lon="7.05497">
        <ele>126.59999847412</ele>
        <time>2012-01-19T12:12:17.000Z</time>
      </trkpt>
      <trkpt lat="43.6093" lon="7.05499">
        <ele>126.59999847412</ele>
        <time>2012-01-19T12:12:18.000Z</time>
      </trkpt>
      <trkpt lat="43.60912" lon="7.05506">
        <ele>127.59999847412</ele>
        <time>2012-01-19T12:12:23.000Z</time>
      </trkpt>
      <trkpt lat="43.60901" lon="7.05509">
        <ele>127.80000305176</ele>
        <time>2012-01-19T12:12:26.000Z</time>
      </trkpt>
      <trkpt lat="43.60883" lon="7.05514">
        <ele>128.19999694824</ele>
        <time>2012-01-19T12:12:32.000Z</time>
      </trkpt>
      <trkpt lat="43.60879" lon="7.05515">
        <ele>128.19999694824</ele>
        <time>2012-01-19T12:12:33.000Z</time>
      </trkpt>
      <trkpt lat="43.60861" lon="7.05524">
        <ele>128.60000610352</ele>
        <time>2012-01-19T12:12:38.000Z</time>
      </trkpt>
      <trkpt lat="43.60855" lon="7.05524">
        <ele>128.60000610352</ele>
        <time>2012-01-19T12:12:40.000Z</time>
      </trkpt>
      <trkpt lat="43.6085" lon="7.05515">
        <ele>128</ele>
        <time>2012-01-19T12:12:43.000Z</time>
      </trkpt>
      <trkpt lat="43.60845" lon="7.05511">
        <ele>127.59999847412</ele>
        <time>2012-01-19T12:12:45.000Z</time>
      </trkpt>
      <trkpt lat="43.6084" lon="7.05508">
        <ele>127.40000152588</ele>
        <time>2012-01-19T12:12:47.000Z</time>
      </trkpt>
      <trkpt lat="43.60836" lon="7.05508">
        <ele>127.40000152588</ele>
        <time>2012-01-19T12:12:49.000Z</time>
      </trkpt>
      <trkpt lat="43.60831" lon="7.05504">
        <ele>127.40000152588</ele>
        <time>2012-01-19T12:12:51.000Z</time>
      </trkpt>
      <trkpt lat="43.60821" lon="7.055">
        <ele>128.19999694824</ele>
        <time>2012-01-19T12:12:56.000Z</time>
      </trkpt>
      <trkpt lat="43.60819" lon="7.05498">
        <ele>128.39999389648</ele>
        <time>2012-01-19T12:12:58.000Z</time>
      </trkpt>
      <trkpt lat="43.60819" lon="7.05497">
        <ele>128.39999389648</ele>
        <time>2012-01-19T12:12:59.000Z</time>
      </trkpt>
      <trkpt lat="43.60817" lon="7.05495">
        <ele>128.39999389648</ele>
        <time>2012-01-19T12:13:01.000Z</time>
      </trkpt>
      <trkpt lat="43.60816" lon="7.05493">
        <ele>128.60000610352</ele>
        <time>2012-01-19T12:13:03.000Z</time>
      </trkpt>
      <trkpt lat="43.60816" lon="7.05491">
        <ele>128.60000610352</ele>
        <time>2012-01-19T12:13:04.000Z</time>
      </trkpt>
      <trkpt lat="43.60815" lon="7.05484">
        <ele>128.60000610352</ele>
        <time>2012-01-19T12:13:07.000Z</time>
      </trkpt>
      <trkpt lat="43.60819" lon="7.05471">
        <ele>128</ele>
        <time>2012-01-19T12:13:11.000Z</time>
      </trkpt>
      <trkpt lat="43.60821" lon="7.05464">
        <ele>127.80000305176</ele>
        <time>2012-01-19T12:13:13.000Z</time>
      </trkpt>
      <trkpt lat="43.60826" lon="7.05447">
        <ele>127.19999694824</ele>
        <time>2012-01-19T12:13:19.000Z</time>
      </trkpt>
      <trkpt lat="43.60824" lon="7.05429">
        <ele>127.19999694824</ele>
        <time>2012-01-19T12:13:24.000Z</time>
      </trkpt>
      <trkpt lat="43.60824" lon="7.05411">
        <ele>127.19999694824</ele>
        <time>2012-01-19T12:13:29.000Z</time>
      </trkpt>
      <trkpt lat="43.60823" lon="7.05404">
        <ele>127.59999847412</ele>
        <time>2012-01-19T12:13:32.000Z</time>
      </trkpt>
      <trkpt lat="43.60821" lon="7.05402">
        <ele>127.80000305176</ele>
        <time>2012-01-19T12:13:33.000Z</time>
      </trkpt>
      <trkpt lat="43.60817" lon="7.05394">
        <ele>128.60000610352</ele>
        <time>2012-01-19T12:13:36.000Z</time>
      </trkpt>
      <trkpt lat="43.60814" lon="7.05388">
        <ele>128.80000305176</ele>
        <time>2012-01-19T12:13:38.000Z</time>
      </trkpt>
      <trkpt lat="43.60811" lon="7.05375">
        <ele>129.39999389648</ele>
        <time>2012-01-19T12:13:42.000Z</time>
      </trkpt>
      <trkpt lat="43.60809" lon="7.05364">
        <ele>130</ele>
        <time>2012-01-19T12:13:46.000Z</time>
      </trkpt>
      <trkpt lat="43.60806" lon="7.05348">
        <ele>130.39999389648</ele>
        <time>2012-01-19T12:13:52.000Z</time>
      </trkpt>
      <trkpt lat="43.60802" lon="7.05342">
        <ele>130.60000610352</ele>
        <time>2012-01-19T12:13:55.000Z</time>
      </trkpt>
      <trkpt lat="43.60797" lon="7.05336">
        <ele>130.80000305176</ele>
        <time>2012-01-19T12:13:58.000Z</time>
      </trkpt>
      <trkpt lat="43.60789" lon="7.0532">
        <ele>131.80000305176</ele>
        <time>2012-01-19T12:14:05.000Z</time>
      </trkpt>
      <trkpt lat="43.60784" lon="7.05307">
        <ele>132.39999389648</ele>
        <time>2012-01-19T12:14:11.000Z</time>
      </trkpt>
      <trkpt lat="43.60783" lon="7.05295">
        <ele>133</ele>
        <time>2012-01-19T12:14:16.000Z</time>
      </trkpt>
      <trkpt lat="43.6078" lon="7.05283">
        <ele>133.60000610352</ele>
        <time>2012-01-19T12:14:22.000Z</time>
      </trkpt>
      <trkpt lat="43.60782" lon="7.05271">
        <ele>134.19999694824</ele>
        <time>2012-01-19T12:14:29.000Z</time>
      </trkpt>
      <trkpt lat="43.60783" lon="7.05267">
        <ele>134.39999389648</ele>
        <time>2012-01-19T12:14:32.000Z</time>
      </trkpt>
      <trkpt lat="43.60782" lon="7.05263">
        <ele>134.60000610352</ele>
        <time>2012-01-19T12:14:34.000Z</time>
      </trkpt>
      <trkpt lat="43.60782" lon="7.05256">
        <ele>134.80000305176</ele>
        <time>2012-01-19T12:14:37.000Z</time>
      </trkpt>
      <trkpt lat="43.60781" lon="7.05253">
        <ele>135</ele>
        <time>2012-01-19T12:14:39.000Z</time>
      </trkpt>
      <trkpt lat="43.6078" lon="7.05252">
        <ele>135</ele>
        <time>2012-01-19T12:14:40.000Z</time>
      </trkpt>
      <trkpt lat="43.60779" lon="7.05248">
        <ele>135.19999694824</ele>
        <time>2012-01-19T12:14:45.000Z</time>
      </trkpt>
      <trkpt lat="43.60782" lon="7.05243">
        <ele>135.60000610352</ele>
        <time>2012-01-19T12:14:53.000Z</time>
      </trkpt>
      <trkpt lat="43.60785" lon="7.05233">
        <ele>136.39999389648</ele>
        <time>2012-01-19T12:15:01.000Z</time>
      </trkpt>
      <trkpt lat="43.60786" lon="7.05227">
        <ele>136.80000305176</ele>
        <time>2012-01-19T12:15:08.000Z</time>
      </trkpt>
      <trkpt lat="43.60782" lon="7.05219">
        <ele>137.19999694824</ele>
        <time>2012-01-19T12:15:18.000Z</time>
      </trkpt>
      <trkpt lat="43.60782" lon="7.05215">
        <ele>137.60000610352</ele>
        <time>2012-01-19T12:15:20.000Z</time>
      </trkpt>
      <trkpt lat="43.60784" lon="7.0521">
        <ele>138</ele>
        <time>2012-01-19T12:15:23.000Z</time>
      </trkpt>
      <trkpt lat="43.60788" lon="7.052">
        <ele>138.60000610352</ele>
        <time>2012-01-19T12:15:29.000Z</time>
      </trkpt>
      <trkpt lat="43.60788" lon="7.05198">
        <ele>138.80000305176</ele>
        <time>2012-01-19T12:15:30.000Z</time>
      </trkpt>
      <trkpt lat="43.6079" lon="7.05193">
        <ele>139.19999694824</ele>
        <time>2012-01-19T12:15:33.000Z</time>
      </trkpt>
      <trkpt lat="43.60792" lon="7.05192">
        <ele>139.39999389648</ele>
        <time>2012-01-19T12:15:34.000Z</time>
      </trkpt>
      <trkpt lat="43.60801" lon="7.05184">
        <ele>140</ele>
        <time>2012-01-19T12:15:39.000Z</time>
      </trkpt>
      <trkpt lat="43.60813" lon="7.05168">
        <ele>141.39999389648</ele>
        <time>2012-01-19T12:15:47.000Z</time>
      </trkpt>
      <trkpt lat="43.60819" lon="7.05165">
        <ele>141.80000305176</ele>
        <time>2012-01-19T12:15:52.000Z</time>
      </trkpt>
      <trkpt lat="43.60828" lon="7.05159">
        <ele>142.39999389648</ele>
        <time>2012-01-19T12:15:58.000Z</time>
      </trkpt>
      <trkpt lat="43.6084" lon="7.05156">
        <ele>142.19999694824</ele>
        <time>2012-01-19T12:16:03.000Z</time>
      </trkpt>
      <trkpt lat="43.60855" lon="7.05143">
        <ele>142.19999694824</ele>
        <time>2012-01-19T12:16:09.000Z</time>
      </trkpt>
      <trkpt lat="43.60858" lon="7.0513">
        <ele>142.80000305176</ele>
        <time>2012-01-19T12:16:14.000Z</time>
      </trkpt>
      <trkpt lat="43.60859" lon="7.05114">
        <ele>143.80000305176</ele>
        <time>2012-01-19T12:16:19.000Z</time>
      </trkpt>
      <trkpt lat="43.60862" lon="7.05091">
        <ele>145.19999694824</ele>
        <time>2012-01-19T12:16:26.000Z</time>
      </trkpt>
      <trkpt lat="43.60862" lon="7.0508">
        <ele>145.80000305176</ele>
        <time>2012-01-19T12:16:30.000Z</time>
      </trkpt>
      <trkpt lat="43.60864" lon="7.05074">
        <ele>146.19999694824</ele>
        <time>2012-01-19T12:16:32.000Z</time>
      </trkpt>
      <trkpt lat="43.60866" lon="7.05069">
        <ele>146.60000610352</ele>
        <time>2012-01-19T12:16:34.000Z</time>
      </trkpt>
      <trkpt lat="43.6087" lon="7.05056">
        <ele>147.19999694824</ele>
        <time>2012-01-19T12:16:39.000Z</time>
      </trkpt>
      <trkpt lat="43.60877" lon="7.05043">
        <ele>147.80000305176</ele>
        <time>2012-01-19T12:16:44.000Z</time>
      </trkpt>
      <trkpt lat="43.60883" lon="7.05023">
        <ele>148.80000305176</ele>
        <time>2012-01-19T12:16:52.000Z</time>
      </trkpt>
      <trkpt lat="43.60889" lon="7.0501">
        <ele>149.39999389648</ele>
        <time>2012-01-19T12:16:57.000Z</time>
      </trkpt>
      <trkpt lat="43.60899" lon="7.04994">
        <ele>149.60000610352</ele>
        <time>2012-01-19T12:17:02.000Z</time>
      </trkpt>
      <trkpt lat="43.60904" lon="7.04971">
        <ele>150.39999389648</ele>
        <time>2012-01-19T12:17:08.000Z</time>
      </trkpt>
      <trkpt lat="43.60907" lon="7.04951">
        <ele>151</ele>
        <time>2012-01-19T12:17:14.000Z</time>
      </trkpt>
      <trkpt lat="43.60909" lon="7.04931">
        <ele>151.80000305176</ele>
        <time>2012-01-19T12:17:20.000Z</time>
      </trkpt>
      <trkpt lat="43.60913" lon="7.04906">
        <ele>152.80000305176</ele>
        <time>2012-01-19T12:17:27.000Z</time>
      </trkpt>
      <trkpt lat="43.60917" lon="7.04895">
        <ele>153.19999694824</ele>
        <time>2012-01-19T12:17:31.000Z</time>
      </trkpt>
      <trkpt lat="43.60919" lon="7.04892">
        <ele>153</ele>
        <time>2012-01-19T12:17:32.000Z</time>
      </trkpt>
      <trkpt lat="43.6093" lon="7.0488">
        <ele>151.80000305176</ele>
        <time>2012-01-19T12:17:37.000Z</time>
      </trkpt>
      <trkpt lat="43.60941" lon="7.04861">
        <ele>151</ele>
        <time>2012-01-19T12:17:42.000Z</time>
      </trkpt>
      <trkpt lat="43.60945" lon="7.04855">
        <ele>150.39999389648</ele>
        <time>2012-01-19T12:17:45.000Z</time>
      </trkpt>
      <trkpt lat="43.60948" lon="7.0485">
        <ele>150</ele>
        <time>2012-01-19T12:17:47.000Z</time>
      </trkpt>
      <trkpt lat="43.60961" lon="7.04833">
        <ele>148.60000610352</ele>
        <time>2012-01-19T12:17:52.000Z</time>
      </trkpt>
      <trkpt lat="43.60969" lon="7.04812">
        <ele>147.60000610352</ele>
        <time>2012-01-19T12:17:57.000Z</time>
      </trkpt>
      <trkpt lat="43.60974" lon="7.04805">
        <ele>147</ele>
        <time>2012-01-19T12:18:01.000Z</time>
      </trkpt>
      <trkpt lat="43.60975" lon="7.04803">
        <ele>147</ele>
        <time>2012-01-19T12:18:02.000Z</time>
      </trkpt>
      <trkpt lat="43.60979" lon="7.04793">
        <ele>146.60000610352</ele>
        <time>2012-01-19T12:18:06.000Z</time>
      </trkpt>
      <trkpt lat="43.60985" lon="7.04789">
        <ele>145.80000305176</ele>
        <time>2012-01-19T12:18:09.000Z</time>
      </trkpt>
      <trkpt lat="43.60988" lon="7.04788">
        <ele>145.19999694824</ele>
        <time>2012-01-19T12:18:11.000Z</time>
      </trkpt>
      <trkpt lat="43.60999" lon="7.0478">
        <ele>143.60000610352</ele>
        <time>2012-01-19T12:18:18.000Z</time>
      </trkpt>
      <trkpt lat="43.61003" lon="7.04776">
        <ele>144</ele>
        <time>2012-01-19T12:18:21.000Z</time>
      </trkpt>
      <trkpt lat="43.61005" lon="7.0477">
        <ele>144.19999694824</ele>
        <time>2012-01-19T12:18:23.000Z</time>
      </trkpt>
      <trkpt lat="43.61012" lon="7.0476">
        <ele>145</ele>
        <time>2012-01-19T12:18:29.000Z</time>
      </trkpt>
      <trkpt lat="43.61015" lon="7.04754">
        <ele>145.60000610352</ele>
        <time>2012-01-19T12:18:35.000Z</time>
      </trkpt>
      <trkpt lat="43.61018" lon="7.04749">
        <ele>146.19999694824</ele>
        <time>2012-01-19T12:18:41.000Z</time>
      </trkpt>
      <trkpt lat="43.61019" lon="7.04748">
        <ele>146.39999389648</ele>
        <time>2012-01-19T12:18:42.000Z</time>
      </trkpt>
      <trkpt lat="43.61027" lon="7.04742">
        <ele>147.60000610352</ele>
        <time>2012-01-19T12:18:46.000Z</time>
      </trkpt>
      <trkpt lat="43.6104" lon="7.04731">
        <ele>149.80000305176</ele>
        <time>2012-01-19T12:18:52.000Z</time>
      </trkpt>
      <trkpt lat="43.61049" lon="7.04728">
        <ele>150.60000610352</ele>
        <time>2012-01-19T12:18:55.000Z</time>
      </trkpt>
      <trkpt lat="43.61051" lon="7.0473">
        <ele>150.60000610352</ele>
        <time>2012-01-19T12:18:56.000Z</time>
      </trkpt>
      <trkpt lat="43.61061" lon="7.04743">
        <ele>149.39999389648</ele>
        <time>2012-01-19T12:19:02.000Z</time>
      </trkpt>
      <trkpt lat="43.61067" lon="7.04748">
        <ele>149.19999694824</ele>
        <time>2012-01-19T12:19:07.000Z</time>
      </trkpt>
      <trkpt lat="43.61068" lon="7.04748">
        <ele>149.39999389648</ele>
        <time>2012-01-19T12:19:08.000Z</time>
      </trkpt>
      <trkpt lat="43.61068" lon="7.04739">
        <ele>150.39999389648</ele>
        <time>2012-01-19T12:19:13.000Z</time>
      </trkpt>
      <trkpt lat="43.61067" lon="7.0472">
        <ele>152.60000610352</ele>
        <time>2012-01-19T12:19:21.000Z</time>
      </trkpt>
      <trkpt lat="43.6107" lon="7.04698">
        <ele>155.19999694824</ele>
        <time>2012-01-19T12:19:31.000Z</time>
      </trkpt>
      <trkpt lat="43.61072" lon="7.04682">
        <ele>157</ele>
        <time>2012-01-19T12:19:38.000Z</time>
      </trkpt>
      <trkpt lat="43.61076" lon="7.04663">
        <ele>159.19999694824</ele>
        <time>2012-01-19T12:19:47.000Z</time>
      </trkpt>
      <trkpt lat="43.61081" lon="7.04649">
        <ele>160.39999389648</ele>
        <time>2012-01-19T12:19:54.000Z</time>
      </trkpt>
      <trkpt lat="43.61083" lon="7.04629">
        <ele>162.19999694824</ele>
        <time>2012-01-19T12:20:01.000Z</time>
      </trkpt>
      <trkpt lat="43.61076" lon="7.04613">
        <ele>163.80000305176</ele>
        <time>2012-01-19T12:20:07.000Z</time>
      </trkpt>
      <trkpt lat="43.61066" lon="7.0461">
        <ele>164.39999389648</ele>
        <time>2012-01-19T12:20:12.000Z</time>
      </trkpt>
      <trkpt lat="43.61049" lon="7.0462">
        <ele>163.80000305176</ele>
        <time>2012-01-19T12:20:19.000Z</time>
      </trkpt>
      <trkpt lat="43.61033" lon="7.04632">
        <ele>162.39999389648</ele>
        <time>2012-01-19T12:20:26.000Z</time>
      </trkpt>
      <trkpt lat="43.61016" lon="7.0464">
        <ele>161.39999389648</ele>
        <time>2012-01-19T12:20:33.000Z</time>
      </trkpt>
      <trkpt lat="43.61" lon="7.04654">
        <ele>159</ele>
        <time>2012-01-19T12:20:39.000Z</time>
      </trkpt>
      <trkpt lat="43.60983" lon="7.04672">
        <ele>157.60000610352</ele>
        <time>2012-01-19T12:20:44.000Z</time>
      </trkpt>
      <trkpt lat="43.6098" lon="7.04676">
        <ele>157.60000610352</ele>
        <time>2012-01-19T12:20:45.000Z</time>
      </trkpt>
      <trkpt lat="43.60964" lon="7.04693">
        <ele>157</ele>
        <time>2012-01-19T12:20:49.000Z</time>
      </trkpt>
      <trkpt lat="43.60957" lon="7.04701">
        <ele>156.80000305176</ele>
        <time>2012-01-19T12:20:51.000Z</time>
      </trkpt>
      <trkpt lat="43.60952" lon="7.0471">
        <ele>156.60000610352</ele>
        <time>2012-01-19T12:20:53.000Z</time>
      </trkpt>
      <trkpt lat="43.60943" lon="7.04727">
        <ele>156</ele>
        <time>2012-01-19T12:20:56.000Z</time>
      </trkpt>
      <trkpt lat="43.60928" lon="7.0474">
        <ele>157</ele>
        <time>2012-01-19T12:21:00.000Z</time>
      </trkpt>
      <trkpt lat="43.60924" lon="7.04742">
        <ele>157.39999389648</ele>
        <time>2012-01-19T12:21:01.000Z</time>
      </trkpt>
      <trkpt lat="43.60912" lon="7.04746">
        <ele>158.19999694824</ele>
        <time>2012-01-19T12:21:04.000Z</time>
      </trkpt>
      <trkpt lat="43.60904" lon="7.04749">
        <ele>158</ele>
        <time>2012-01-19T12:21:06.000Z</time>
      </trkpt>
      <trkpt lat="43.60901" lon="7.04749">
        <ele>158</ele>
        <time>2012-01-19T12:21:07.000Z</time>
      </trkpt>
      <trkpt lat="43.60887" lon="7.04751">
        <ele>158</ele>
        <time>2012-01-19T12:21:12.000Z</time>
      </trkpt>
      <trkpt lat="43.6088" lon="7.04743">
        <ele>158.39999389648</ele>
        <time>2012-01-19T12:21:16.000Z</time>
      </trkpt>
      <trkpt lat="43.60879" lon="7.0474">
        <ele>158.60000610352</ele>
        <time>2012-01-19T12:21:17.000Z</time>
      </trkpt>
      <trkpt lat="43.60878" lon="7.04716">
        <ele>159.60000610352</ele>
        <time>2012-01-19T12:21:24.000Z</time>
      </trkpt>
      <trkpt lat="43.60879" lon="7.0471">
        <ele>160</ele>
        <time>2012-01-19T12:21:26.000Z</time>
      </trkpt>
      <trkpt lat="43.60881" lon="7.04703">
        <ele>160.39999389648</ele>
        <time>2012-01-19T12:21:29.000Z</time>
      </trkpt>
      <trkpt lat="43.60886" lon="7.04689">
        <ele>161.39999389648</ele>
        <time>2012-01-19T12:21:35.000Z</time>
      </trkpt>
      <trkpt lat="43.60888" lon="7.04676">
        <ele>162.19999694824</ele>
        <time>2012-01-19T12:21:41.000Z</time>
      </trkpt>
      <trkpt lat="43.60889" lon="7.04672">
        <ele>162.39999389648</ele>
        <time>2012-01-19T12:21:43.000Z</time>
      </trkpt>
      <trkpt lat="43.60891" lon="7.04664">
        <ele>163</ele>
        <time>2012-01-19T12:21:46.000Z</time>
      </trkpt>
      <trkpt lat="43.60894" lon="7.04649">
        <ele>164.39999389648</ele>
        <time>2012-01-19T12:21:53.000Z</time>
      </trkpt>
      <trkpt lat="43.60902" lon="7.04638">
        <ele>165.80000305176</ele>
        <time>2012-01-19T12:21:59.000Z</time>
      </trkpt>
      <trkpt lat="43.60905" lon="7.04634">
        <ele>166.19999694824</ele>
        <time>2012-01-19T12:22:02.000Z</time>
      </trkpt>
      <trkpt lat="43.60907" lon="7.0463">
        <ele>166.80000305176</ele>
        <time>2012-01-19T12:22:05.000Z</time>
      </trkpt>
      <trkpt lat="43.60911" lon="7.04621">
        <ele>167.80000305176</ele>
        <time>2012-01-19T12:22:10.000Z</time>
      </trkpt>
      <trkpt lat="43.60911" lon="7.04619">
        <ele>168</ele>
        <time>2012-01-19T12:22:11.000Z</time>
      </trkpt>
      <trkpt lat="43.60914" lon="7.0461">
        <ele>169.19999694824</ele>
        <time>2012-01-19T12:22:15.000Z</time>
      </trkpt>
      <trkpt lat="43.60915" lon="7.04604">
        <ele>169.80000305176</ele>
        <time>2012-01-19T12:22:18.000Z</time>
      </trkpt>
      <trkpt lat="43.60922" lon="7.04589">
        <ele>171.39999389648</ele>
        <time>2012-01-19T12:22:26.000Z</time>
      </trkpt>
      <trkpt lat="43.60923" lon="7.04586">
        <ele>171.80000305176</ele>
        <time>2012-01-19T12:22:32.000Z</time>
      </trkpt>
      <trkpt lat="43.60926" lon="7.04582">
        <ele>172</ele>
        <time>2012-01-19T12:22:38.000Z</time>
      </trkpt>
      <trkpt lat="43.60927" lon="7.04578">
        <ele>172</ele>
        <time>2012-01-19T12:22:43.000Z</time>
      </trkpt>
      <trkpt lat="43.60929" lon="7.04569">
        <ele>172.19999694824</ele>
        <time>2012-01-19T12:22:48.000Z</time>
      </trkpt>
      <trkpt lat="43.60938" lon="7.04561">
        <ele>172.39999389648</ele>
        <time>2012-01-19T12:22:54.000Z</time>
      </trkpt>
      <trkpt lat="43.6095" lon="7.04549">
        <ele>173</ele>
        <time>2012-01-19T12:23:02.000Z</time>
      </trkpt>
      <trkpt lat="43.60955" lon="7.04534">
        <ele>173.60000610352</ele>
        <time>2012-01-19T12:23:07.000Z</time>
      </trkpt>
      <trkpt lat="43.60957" lon="7.04518">
        <ele>174.19999694824</ele>
        <time>2012-01-19T12:23:12.000Z</time>
      </trkpt>
      <trkpt lat="43.60957" lon="7.0451">
        <ele>174.60000610352</ele>
        <time>2012-01-19T12:23:15.000Z</time>
      </trkpt>
      <trkpt lat="43.60959" lon="7.04507">
        <ele>174.80000305176</ele>
        <time>2012-01-19T12:23:17.000Z</time>
      </trkpt>
      <trkpt lat="43.60962" lon="7.04493">
        <ele>175.60000610352</ele>
        <time>2012-01-19T12:23:22.000Z</time>
      </trkpt>
      <trkpt lat="43.60964" lon="7.04489">
        <ele>176</ele>
        <time>2012-01-19T12:23:24.000Z</time>
      </trkpt>
      <trkpt lat="43.60967" lon="7.04483">
        <ele>176.60000610352</ele>
        <time>2012-01-19T12:23:27.000Z</time>
      </trkpt>
      <trkpt lat="43.6097" lon="7.0447">
        <ele>177.60000610352</ele>
        <time>2012-01-19T12:23:33.000Z</time>
      </trkpt>
      <trkpt lat="43.60971" lon="7.04468">
        <ele>177.80000305176</ele>
        <time>2012-01-19T12:23:34.000Z</time>
      </trkpt>
      <trkpt lat="43.60971" lon="7.04462">
        <ele>178.39999389648</ele>
        <time>2012-01-19T12:23:38.000Z</time>
      </trkpt>
      <trkpt lat="43.6097" lon="7.04461">
        <ele>178.39999389648</ele>
        <time>2012-01-19T12:23:39.000Z</time>
      </trkpt>
      <trkpt lat="43.6096" lon="7.04458">
        <ele>178.39999389648</ele>
        <time>2012-01-19T12:23:44.000Z</time>
      </trkpt>
      <trkpt lat="43.60955" lon="7.04447">
        <ele>179</ele>
        <time>2012-01-19T12:23:50.000Z</time>
      </trkpt>
      <trkpt lat="43.60952" lon="7.04441">
        <ele>179.39999389648</ele>
        <time>2012-01-19T12:23:53.000Z</time>
      </trkpt>
      <trkpt lat="43.60952" lon="7.04438">
        <ele>179.60000610352</ele>
        <time>2012-01-19T12:23:55.000Z</time>
      </trkpt>
      <trkpt lat="43.60954" lon="7.04425">
        <ele>180.80000305176</ele>
        <time>2012-01-19T12:24:02.000Z</time>
      </trkpt>
      <trkpt lat="43.60955" lon="7.04412">
        <ele>181.60000610352</ele>
        <time>2012-01-19T12:24:09.000Z</time>
      </trkpt>
      <trkpt lat="43.60952" lon="7.04401">
        <ele>182</ele>
        <time>2012-01-19T12:24:15.000Z</time>
      </trkpt>
      <trkpt lat="43.60952" lon="7.04389">
        <ele>182.39999389648</ele>
        <time>2012-01-19T12:24:21.000Z</time>
      </trkpt>
      <trkpt lat="43.60953" lon="7.04378">
        <ele>182.80000305176</ele>
        <time>2012-01-19T12:24:27.000Z</time>
      </trkpt>
      <trkpt lat="43.60959" lon="7.04366">
        <ele>183.39999389648</ele>
        <time>2012-01-19T12:24:34.000Z</time>
      </trkpt>
      <trkpt lat="43.60962" lon="7.04362">
        <ele>183.39999389648</ele>
        <time>2012-01-19T12:24:37.000Z</time>
      </trkpt>
      <trkpt lat="43.60964" lon="7.04354">
        <ele>183.80000305176</ele>
        <time>2012-01-19T12:24:41.000Z</time>
      </trkpt>
      <trkpt lat="43.60966" lon="7.04344">
        <ele>184</ele>
        <time>2012-01-19T12:24:45.000Z</time>
      </trkpt>
      <trkpt lat="43.60966" lon="7.04337">
        <ele>184.39999389648</ele>
        <time>2012-01-19T12:24:47.000Z</time>
      </trkpt>
      <trkpt lat="43.60966" lon="7.04312">
        <ele>185</ele>
        <time>2012-01-19T12:24:53.000Z</time>
      </trkpt>
      <trkpt lat="43.60965" lon="7.04305">
        <ele>185.19999694824</ele>
        <time>2012-01-19T12:24:55.000Z</time>
      </trkpt>
      <trkpt lat="43.60962" lon="7.04295">
        <ele>185.60000610352</ele>
        <time>2012-01-19T12:24:58.000Z</time>
      </trkpt>
      <trkpt lat="43.60961" lon="7.04285">
        <ele>186</ele>
        <time>2012-01-19T12:25:01.000Z</time>
      </trkpt>
      <trkpt lat="43.60958" lon="7.04278">
        <ele>186.19999694824</ele>
        <time>2012-01-19T12:25:03.000Z</time>
      </trkpt>
      <trkpt lat="43.60952" lon="7.04257">
        <ele>187</ele>
        <time>2012-01-19T12:25:08.000Z</time>
      </trkpt>
      <trkpt lat="43.60947" lon="7.04238">
        <ele>187.39999389648</ele>
        <time>2012-01-19T12:25:13.000Z</time>
      </trkpt>
      <trkpt lat="43.60946" lon="7.04234">
        <ele>187.60000610352</ele>
        <time>2012-01-19T12:25:14.000Z</time>
      </trkpt>
      <trkpt lat="43.60948" lon="7.04222">
        <ele>187.60000610352</ele>
        <time>2012-01-19T12:25:18.000Z</time>
      </trkpt>
      <trkpt lat="43.6095" lon="7.0422">
        <ele>187.60000610352</ele>
        <time>2012-01-19T12:25:19.000Z</time>
      </trkpt>
      <trkpt lat="43.60954" lon="7.04205">
        <ele>187.60000610352</ele>
        <time>2012-01-19T12:25:25.000Z</time>
      </trkpt>
      <trkpt lat="43.60951" lon="7.04193">
        <ele>187.80000305176</ele>
        <time>2012-01-19T12:25:30.000Z</time>
      </trkpt>
      <trkpt lat="43.60951" lon="7.04191">
        <ele>187.80000305176</ele>
        <time>2012-01-19T12:25:31.000Z</time>
      </trkpt>
      <trkpt lat="43.60949" lon="7.04188">
        <ele>188</ele>
        <time>2012-01-19T12:25:36.000Z</time>
      </trkpt>
      <trkpt lat="43.60947" lon="7.04184">
        <ele>188.19999694824</ele>
        <time>2012-01-19T12:25:49.000Z</time>
      </trkpt>
      <trkpt lat="43.60946" lon="7.0418">
        <ele>188.39999389648</ele>
        <time>2012-01-19T12:25:59.000Z</time>
      </trkpt>
      <trkpt lat="43.60944" lon="7.04171">
        <ele>188.60000610352</ele>
        <time>2012-01-19T12:26:07.000Z</time>
      </trkpt>
      <trkpt lat="43.60945" lon="7.04162">
        <ele>188.80000305176</ele>
        <time>2012-01-19T12:26:24.000Z</time>
      </trkpt>
      <trkpt lat="43.60953" lon="7.04156">
        <ele>188.19999694824</ele>
        <time>2012-01-19T12:26:29.000Z</time>
      </trkpt>
      <trkpt lat="43.60958" lon="7.0415">
        <ele>187.80000305176</ele>
        <time>2012-01-19T12:26:34.000Z</time>
      </trkpt>
      <trkpt lat="43.60959" lon="7.04149">
        <ele>187.80000305176</ele>
        <time>2012-01-19T12:26:35.000Z</time>
      </trkpt>
      <trkpt lat="43.60961" lon="7.04145">
        <ele>187.60000610352</ele>
        <time>2012-01-19T12:26:38.000Z</time>
      </trkpt>
      <trkpt lat="43.60963" lon="7.04138">
        <ele>187.60000610352</ele>
        <time>2012-01-19T12:26:41.000Z</time>
      </trkpt>
      <trkpt lat="43.60962" lon="7.04125">
        <ele>187.80000305176</ele>
        <time>2012-01-19T12:26:45.000Z</time>
      </trkpt>
      <trkpt lat="43.60963" lon="7.04118">
        <ele>187.80000305176</ele>
        <time>2012-01-19T12:26:47.000Z</time>
      </trkpt>
      <trkpt lat="43.60972" lon="7.04117">
        <ele>186.80000305176</ele>
        <time>2012-01-19T12:26:51.000Z</time>
      </trkpt>
      <trkpt lat="43.60974" lon="7.04119">
        <ele>186.39999389648</ele>
        <time>2012-01-19T12:26:52.000Z</time>
      </trkpt>
      <trkpt lat="43.60986" lon="7.04132">
        <ele>185.19999694824</ele>
        <time>2012-01-19T12:26:57.000Z</time>
      </trkpt>
      <trkpt lat="43.60995" lon="7.0414">
        <ele>184.19999694824</ele>
        <time>2012-01-19T12:27:01.000Z</time>
      </trkpt>
      <trkpt lat="43.60997" lon="7.0414">
        <ele>184</ele>
        <time>2012-01-19T12:27:02.000Z</time>
      </trkpt>
      <trkpt lat="43.61005" lon="7.04135">
        <ele>183</ele>
        <time>2012-01-19T12:27:06.000Z</time>
      </trkpt>
      <trkpt lat="43.61007" lon="7.04131">
        <ele>182.80000305176</ele>
        <time>2012-01-19T12:27:07.000Z</time>
      </trkpt>
      <trkpt lat="43.61015" lon="7.04122">
        <ele>181.60000610352</ele>
        <time>2012-01-19T12:27:11.000Z</time>
      </trkpt>
      <trkpt lat="43.61027" lon="7.04118">
        <ele>180.19999694824</ele>
        <time>2012-01-19T12:27:16.000Z</time>
      </trkpt>
      <trkpt lat="43.61039" lon="7.04113">
        <ele>178.80000305176</ele>
        <time>2012-01-19T12:27:21.000Z</time>
      </trkpt>
      <trkpt lat="43.61054" lon="7.04098">
        <ele>177.19999694824</ele>
        <time>2012-01-19T12:27:27.000Z</time>
      </trkpt>
      <trkpt lat="43.61057" lon="7.04097">
        <ele>176.80000305176</ele>
        <time>2012-01-19T12:27:28.000Z</time>
      </trkpt>
      <trkpt lat="43.61067" lon="7.04096">
        <ele>175.60000610352</ele>
        <time>2012-01-19T12:27:32.000Z</time>
      </trkpt>
      <trkpt lat="43.61071" lon="7.04096">
        <ele>175.19999694824</ele>
        <time>2012-01-19T12:27:34.000Z</time>
      </trkpt>
      <trkpt lat="43.61078" lon="7.041">
        <ele>174.39999389648</ele>
        <time>2012-01-19T12:27:37.000Z</time>
      </trkpt>
      <trkpt lat="43.61081" lon="7.04112">
        <ele>174</ele>
        <time>2012-01-19T12:27:41.000Z</time>
      </trkpt>
      <trkpt lat="43.61079" lon="7.0412">
        <ele>174</ele>
        <time>2012-01-19T12:27:44.000Z</time>
      </trkpt>
      <trkpt lat="43.61075" lon="7.04132">
        <ele>174.39999389648</ele>
        <time>2012-01-19T12:27:47.000Z</time>
      </trkpt>
      <trkpt lat="43.61071" lon="7.04141">
        <ele>174.80000305176</ele>
        <time>2012-01-19T12:27:50.000Z</time>
      </trkpt>
      <trkpt lat="43.61071" lon="7.04146">
        <ele>174.80000305176</ele>
        <time>2012-01-19T12:27:51.000Z</time>
      </trkpt>
      <trkpt lat="43.61071" lon="7.04162">
        <ele>174.60000610352</ele>
        <time>2012-01-19T12:27:54.000Z</time>
      </trkpt>
      <trkpt lat="43.6107" lon="7.04175">
        <ele>175</ele>
        <time>2012-01-19T12:27:56.000Z</time>
      </trkpt>
      <trkpt lat="43.61071" lon="7.04199">
        <ele>175.39999389648</ele>
        <time>2012-01-19T12:28:00.000Z</time>
      </trkpt>
      <trkpt lat="43.61072" lon="7.04205">
        <ele>175.39999389648</ele>
        <time>2012-01-19T12:28:01.000Z</time>
      </trkpt>
      <trkpt lat="43.61079" lon="7.04216">
        <ele>174.80000305176</ele>
        <time>2012-01-19T12:28:04.000Z</time>
      </trkpt>
      <trkpt lat="43.61087" lon="7.04224">
        <ele>174.19999694824</ele>
        <time>2012-01-19T12:28:07.000Z</time>
      </trkpt>
      <trkpt lat="43.6109" lon="7.04227">
        <ele>174.19999694824</ele>
        <time>2012-01-19T12:28:09.000Z</time>
      </trkpt>
      <trkpt lat="43.611" lon="7.04239">
        <ele>174.19999694824</ele>
        <time>2012-01-19T12:28:15.000Z</time>
      </trkpt>
      <trkpt lat="43.61112" lon="7.04252">
        <ele>174.39999389648</ele>
        <time>2012-01-19T12:28:20.000Z</time>
      </trkpt>
      <trkpt lat="43.61123" lon="7.0426">
        <ele>174.60000610352</ele>
        <time>2012-01-19T12:28:25.000Z</time>
      </trkpt>
      <trkpt lat="43.61128" lon="7.04274">
        <ele>175.19999694824</ele>
        <time>2012-01-19T12:28:32.000Z</time>
      </trkpt>
      <trkpt lat="43.61136" lon="7.04274">
        <ele>175</ele>
        <time>2012-01-19T12:28:37.000Z</time>
      </trkpt>
      <trkpt lat="43.61142" lon="7.04273">
        <ele>174.80000305176</ele>
        <time>2012-01-19T12:28:41.000Z</time>
      </trkpt>
      <trkpt lat="43.61145" lon="7.04277">
        <ele>175</ele>
        <time>2012-01-19T12:28:44.000Z</time>
      </trkpt>
      <trkpt lat="43.61145" lon="7.04278">
        <ele>175</ele>
        <time>2012-01-19T12:28:45.000Z</time>
      </trkpt>
      <trkpt lat="43.61146" lon="7.04283">
        <ele>175.19999694824</ele>
        <time>2012-01-19T12:28:50.000Z</time>
      </trkpt>
      <trkpt lat="43.61146" lon="7.0429">
        <ele>175.60000610352</ele>
        <time>2012-01-19T12:28:55.000Z</time>
      </trkpt>
      <trkpt lat="43.61146" lon="7.04293">
        <ele>175.80000305176</ele>
        <time>2012-01-19T12:28:57.000Z</time>
      </trkpt>
      <trkpt lat="43.61146" lon="7.04294">
        <ele>175.80000305176</ele>
        <time>2012-01-19T12:28:58.000Z</time>
      </trkpt>
      <trkpt lat="43.61146" lon="7.04297">
        <ele>176</ele>
        <time>2012-01-19T12:29:02.000Z</time>
      </trkpt>
      <trkpt lat="43.61147" lon="7.04302">
        <ele>176.39999389648</ele>
        <time>2012-01-19T12:29:08.000Z</time>
      </trkpt>
      <trkpt lat="43.6115" lon="7.04309">
        <ele>176.60000610352</ele>
        <time>2012-01-19T12:29:12.000Z</time>
      </trkpt>
      <trkpt lat="43.61152" lon="7.04311">
        <ele>176.80000305176</ele>
        <time>2012-01-19T12:29:13.000Z</time>
      </trkpt>
      <trkpt lat="43.61153" lon="7.04317">
        <ele>177</ele>
        <time>2012-01-19T12:29:16.000Z</time>
      </trkpt>
      <trkpt lat="43.61152" lon="7.04323">
        <ele>177.39999389648</ele>
        <time>2012-01-19T12:29:18.000Z</time>
      </trkpt>
      <trkpt lat="43.61156" lon="7.04336">
        <ele>178</ele>
        <time>2012-01-19T12:29:25.000Z</time>
      </trkpt>
      <trkpt lat="43.61162" lon="7.04341">
        <ele>178</ele>
        <time>2012-01-19T12:29:31.000Z</time>
      </trkpt>
      <trkpt lat="43.61167" lon="7.04342">
        <ele>177.80000305176</ele>
        <time>2012-01-19T12:29:50.000Z</time>
      </trkpt>
      <trkpt lat="43.61169" lon="7.04347">
        <ele>177.80000305176</ele>
        <time>2012-01-19T12:29:54.000Z</time>
      </trkpt>
      <trkpt lat="43.61172" lon="7.04349">
        <ele>177.60000610352</ele>
        <time>2012-01-19T12:29:57.000Z</time>
      </trkpt>
      <trkpt lat="43.61177" lon="7.04352">
        <ele>177.19999694824</ele>
        <time>2012-01-19T12:30:01.000Z</time>
      </trkpt>
      <trkpt lat="43.61189" lon="7.04355">
        <ele>176.60000610352</ele>
        <time>2012-01-19T12:30:07.000Z</time>
      </trkpt>
      <trkpt lat="43.61201" lon="7.0436">
        <ele>175.80000305176</ele>
        <time>2012-01-19T12:30:13.000Z</time>
      </trkpt>
      <trkpt lat="43.61214" lon="7.04371">
        <ele>174.80000305176</ele>
        <time>2012-01-19T12:30:19.000Z</time>
      </trkpt>
      <trkpt lat="43.61223" lon="7.0438">
        <ele>174</ele>
        <time>2012-01-19T12:30:24.000Z</time>
      </trkpt>
      <trkpt lat="43.61237" lon="7.04389">
        <ele>172.80000305176</ele>
        <time>2012-01-19T12:30:29.000Z</time>
      </trkpt>
      <trkpt lat="43.61248" lon="7.04399">
        <ele>171.80000305176</ele>
        <time>2012-01-19T12:30:34.000Z</time>
      </trkpt>
      <trkpt lat="43.61257" lon="7.0441">
        <ele>170</ele>
        <time>2012-01-19T12:30:40.000Z</time>
      </trkpt>
      <trkpt lat="43.61264" lon="7.04421">
        <ele>168.19999694824</ele>
        <time>2012-01-19T12:30:44.000Z</time>
      </trkpt>
      <trkpt lat="43.61272" lon="7.04433">
        <ele>166.80000305176</ele>
        <time>2012-01-19T12:30:49.000Z</time>
      </trkpt>
      <trkpt lat="43.61274" lon="7.04436">
        <ele>166.39999389648</ele>
        <time>2012-01-19T12:30:50.000Z</time>
      </trkpt>
      <trkpt lat="43.6128" lon="7.04441">
        <ele>165.39999389648</ele>
        <time>2012-01-19T12:30:53.000Z</time>
      </trkpt>
      <trkpt lat="43.61291" lon="7.04457">
        <ele>163.39999389648</ele>
        <time>2012-01-19T12:30:59.000Z</time>
      </trkpt>
      <trkpt lat="43.61304" lon="7.04469">
        <ele>161</ele>
        <time>2012-01-19T12:31:05.000Z</time>
      </trkpt>
      <trkpt lat="43.6131" lon="7.04476">
        <ele>160</ele>
        <time>2012-01-19T12:31:08.000Z</time>
      </trkpt>
      <trkpt lat="43.61314" lon="7.04477">
        <ele>159.19999694824</ele>
        <time>2012-01-19T12:31:10.000Z</time>
      </trkpt>
      <trkpt lat="43.6132" lon="7.0447">
        <ele>158.19999694824</ele>
        <time>2012-01-19T12:31:14.000Z</time>
      </trkpt>
      <trkpt lat="43.61328" lon="7.04463">
        <ele>156.60000610352</ele>
        <time>2012-01-19T12:31:19.000Z</time>
      </trkpt>
      <trkpt lat="43.61331" lon="7.04452">
        <ele>155.80000305176</ele>
        <time>2012-01-19T12:31:24.000Z</time>
      </trkpt>
      <trkpt lat="43.61331" lon="7.04451">
        <ele>155.80000305176</ele>
        <time>2012-01-19T12:31:30.000Z</time>
      </trkpt>
      <trkpt lat="43.61334" lon="7.0444">
        <ele>155.19999694824</ele>
        <time>2012-01-19T12:32:44.000Z</time>
      </trkpt>
      <trkpt lat="43.61342" lon="7.04428">
        <ele>155</ele>
        <time>2012-01-19T12:32:51.000Z</time>
      </trkpt>
      <trkpt lat="43.61354" lon="7.04416">
        <ele>154.39999389648</ele>
        <time>2012-01-19T12:32:56.000Z</time>
      </trkpt>
      <trkpt lat="43.61365" lon="7.04391">
        <ele>153.19999694824</ele>
        <time>2012-01-19T12:33:00.000Z</time>
      </trkpt>
      <trkpt lat="43.61376" lon="7.04368">
        <ele>151.19999694824</ele>
        <time>2012-01-19T12:33:03.000Z</time>
      </trkpt>
      <trkpt lat="43.61385" lon="7.04352">
        <ele>149.39999389648</ele>
        <time>2012-01-19T12:33:05.000Z</time>
      </trkpt>
      <trkpt lat="43.6139" lon="7.04344">
        <ele>148.19999694824</ele>
        <time>2012-01-19T12:33:06.000Z</time>
      </trkpt>
      <trkpt lat="43.61406" lon="7.04319">
        <ele>145.39999389648</ele>
        <time>2012-01-19T12:33:09.000Z</time>
      </trkpt>
      <trkpt lat="43.61421" lon="7.04302">
        <ele>143.60000610352</ele>
        <time>2012-01-19T12:33:12.000Z</time>
      </trkpt>
      <trkpt lat="43.6143" lon="7.0429">
        <ele>143.19999694824</ele>
        <time>2012-01-19T12:33:14.000Z</time>
      </trkpt>
      <trkpt lat="43.61449" lon="7.0427">
        <ele>141.80000305176</ele>
        <time>2012-01-19T12:33:17.000Z</time>
      </trkpt>
      <trkpt lat="43.61467" lon="7.04249">
        <ele>139.39999389648</ele>
        <time>2012-01-19T12:33:20.000Z</time>
      </trkpt>
      <trkpt lat="43.61477" lon="7.04235">
        <ele>138.60000610352</ele>
        <time>2012-01-19T12:33:22.000Z</time>
      </trkpt>
      <trkpt lat="43.61491" lon="7.04216">
        <ele>137</ele>
        <time>2012-01-19T12:33:25.000Z</time>
      </trkpt>
      <trkpt lat="43.61501" lon="7.04201">
        <ele>135.80000305176</ele>
        <time>2012-01-19T12:33:28.000Z</time>
      </trkpt>
      <trkpt lat="43.61503" lon="7.04196">
        <ele>135.60000610352</ele>
        <time>2012-01-19T12:33:29.000Z</time>
      </trkpt>
      <trkpt lat="43.61506" lon="7.04181">
        <ele>135.19999694824</ele>
        <time>2012-01-19T12:33:32.000Z</time>
      </trkpt>
      <trkpt lat="43.61515" lon="7.04164">
        <ele>134.80000305176</ele>
        <time>2012-01-19T12:33:36.000Z</time>
      </trkpt>
      <trkpt lat="43.61519" lon="7.04161">
        <ele>135</ele>
        <time>2012-01-19T12:33:38.000Z</time>
      </trkpt>
      <trkpt lat="43.61522" lon="7.04161">
        <ele>134.80000305176</ele>
        <time>2012-01-19T12:33:40.000Z</time>
      </trkpt>
      <trkpt lat="43.61522" lon="7.04162">
        <ele>134.80000305176</ele>
        <time>2012-01-19T12:33:45.000Z</time>
      </trkpt>
      <trkpt lat="43.6152" lon="7.04163">
        <ele>134.80000305176</ele>
        <time>2012-01-19T12:33:48.000Z</time>
      </trkpt>
      <trkpt lat="43.61519" lon="7.04166">
        <ele>134.80000305176</ele>
        <time>2012-01-19T12:33:50.000Z</time>
      </trkpt>
      <trkpt lat="43.61525" lon="7.04172">
        <ele>134.80000305176</ele>
        <time>2012-01-19T12:33:54.000Z</time>
      </trkpt>
      <trkpt lat="43.61527" lon="7.04176">
        <ele>134.80000305176</ele>
        <time>2012-01-19T12:33:55.000Z</time>
      </trkpt>
      <trkpt lat="43.61531" lon="7.04186">
        <ele>135</ele>
        <time>2012-01-19T12:33:57.000Z</time>
      </trkpt>
      <trkpt lat="43.61531" lon="7.04197">
        <ele>135</ele>
        <time>2012-01-19T12:33:59.000Z</time>
      </trkpt>
      <trkpt lat="43.61532" lon="7.04211">
        <ele>135.19999694824</ele>
        <time>2012-01-19T12:34:02.000Z</time>
      </trkpt>
      <trkpt lat="43.61533" lon="7.04212">
        <ele>135.19999694824</ele>
        <time>2012-01-19T12:34:03.000Z</time>
      </trkpt>
      <trkpt lat="43.6154" lon="7.04204">
        <ele>135</ele>
        <time>2012-01-19T12:34:06.000Z</time>
      </trkpt>
      <trkpt lat="43.61542" lon="7.042">
        <ele>134.80000305176</ele>
        <time>2012-01-19T12:34:07.000Z</time>
      </trkpt>
      <trkpt lat="43.61555" lon="7.04176">
        <ele>134.39999389648</ele>
        <time>2012-01-19T12:34:12.000Z</time>
      </trkpt>
      <trkpt lat="43.61559" lon="7.0417">
        <ele>134.39999389648</ele>
        <time>2012-01-19T12:34:13.000Z</time>
      </trkpt>
      <trkpt lat="43.61569" lon="7.04149">
        <ele>134.80000305176</ele>
        <time>2012-01-19T12:34:18.000Z</time>
      </trkpt>
      <trkpt lat="43.61574" lon="7.04142">
        <ele>135</ele>
        <time>2012-01-19T12:34:20.000Z</time>
      </trkpt>
      <trkpt lat="43.61587" lon="7.04128">
        <ele>135.39999389648</ele>
        <time>2012-01-19T12:34:25.000Z</time>
      </trkpt>
      <trkpt lat="43.61605" lon="7.04126">
        <ele>135.60000610352</ele>
        <time>2012-01-19T12:34:30.000Z</time>
      </trkpt>
      <trkpt lat="43.61614" lon="7.0414">
        <ele>135.19999694824</ele>
        <time>2012-01-19T12:34:33.000Z</time>
      </trkpt>
      <trkpt lat="43.61616" lon="7.04143">
        <ele>135.19999694824</ele>
        <time>2012-01-19T12:34:34.000Z</time>
      </trkpt>
      <trkpt lat="43.61621" lon="7.04153">
        <ele>134.80000305176</ele>
        <time>2012-01-19T12:34:37.000Z</time>
      </trkpt>
      <trkpt lat="43.61629" lon="7.04172">
        <ele>134.39999389648</ele>
        <time>2012-01-19T12:34:41.000Z</time>
      </trkpt>
      <trkpt lat="43.61635" lon="7.04199">
        <ele>134.19999694824</ele>
        <time>2012-01-19T12:34:45.000Z</time>
      </trkpt>
      <trkpt lat="43.61636" lon="7.04207">
        <ele>134</ele>
        <time>2012-01-19T12:34:46.000Z</time>
      </trkpt>
      <trkpt lat="43.61639" lon="7.04238">
        <ele>133.60000610352</ele>
        <time>2012-01-19T12:34:50.000Z</time>
      </trkpt>
      <trkpt lat="43.61642" lon="7.04253">
        <ele>133.39999389648</ele>
        <time>2012-01-19T12:34:52.000Z</time>
      </trkpt>
      <trkpt lat="43.61651" lon="7.04277">
        <ele>133.19999694824</ele>
        <time>2012-01-19T12:34:56.000Z</time>
      </trkpt>
      <trkpt lat="43.61654" lon="7.04283">
        <ele>133</ele>
        <time>2012-01-19T12:34:57.000Z</time>
      </trkpt>
      <trkpt lat="43.61665" lon="7.04306">
        <ele>131.80000305176</ele>
        <time>2012-01-19T12:35:01.000Z</time>
      </trkpt>
      <trkpt lat="43.61676" lon="7.04327">
        <ele>131.80000305176</ele>
        <time>2012-01-19T12:35:05.000Z</time>
      </trkpt>
      <trkpt lat="43.61687" lon="7.04352">
        <ele>133.39999389648</ele>
        <time>2012-01-19T12:35:10.000Z</time>
      </trkpt>
      <trkpt lat="43.61689" lon="7.04357">
        <ele>133.80000305176</ele>
        <time>2012-01-19T12:35:11.000Z</time>
      </trkpt>
      <trkpt lat="43.61699" lon="7.04383">
        <ele>135</ele>
        <time>2012-01-19T12:35:16.000Z</time>
      </trkpt>
      <trkpt lat="43.61701" lon="7.04392">
        <ele>135.39999389648</ele>
        <time>2012-01-19T12:35:18.000Z</time>
      </trkpt>
      <trkpt lat="43.61702" lon="7.0442">
        <ele>136.39999389648</ele>
        <time>2012-01-19T12:35:23.000Z</time>
      </trkpt>
      <trkpt lat="43.61705" lon="7.04444">
        <ele>137.60000610352</ele>
        <time>2012-01-19T12:35:27.000Z</time>
      </trkpt>
      <trkpt lat="43.61707" lon="7.04449">
        <ele>137.80000305176</ele>
        <time>2012-01-19T12:35:28.000Z</time>
      </trkpt>
      <trkpt lat="43.6172" lon="7.04473">
        <ele>138</ele>
        <time>2012-01-19T12:35:32.000Z</time>
      </trkpt>
      <trkpt lat="43.61738" lon="7.0449">
        <ele>136.39999389648</ele>
        <time>2012-01-19T12:35:36.000Z</time>
      </trkpt>
      <trkpt lat="43.61742" lon="7.04495">
        <ele>136</ele>
        <time>2012-01-19T12:35:37.000Z</time>
      </trkpt>
      <trkpt lat="43.61751" lon="7.04512">
        <ele>134.80000305176</ele>
        <time>2012-01-19T12:35:40.000Z</time>
      </trkpt>
      <trkpt lat="43.6176" lon="7.04532">
        <ele>134.39999389648</ele>
        <time>2012-01-19T12:35:43.000Z</time>
      </trkpt>
      <trkpt lat="43.61767" lon="7.04545">
        <ele>134.19999694824</ele>
        <time>2012-01-19T12:35:45.000Z</time>
      </trkpt>
      <trkpt lat="43.61781" lon="7.04571">
        <ele>133.80000305176</ele>
        <time>2012-01-19T12:35:49.000Z</time>
      </trkpt>
      <trkpt lat="43.61788" lon="7.04584">
        <ele>133.60000610352</ele>
        <time>2012-01-19T12:35:51.000Z</time>
      </trkpt>
      <trkpt lat="43.61802" lon="7.0461">
        <ele>132.60000610352</ele>
        <time>2012-01-19T12:35:55.000Z</time>
      </trkpt>
      <trkpt lat="43.6181" lon="7.04631">
        <ele>131.60000610352</ele>
        <time>2012-01-19T12:35:58.000Z</time>
      </trkpt>
      <trkpt lat="43.61823" lon="7.04659">
        <ele>130</ele>
        <time>2012-01-19T12:36:02.000Z</time>
      </trkpt>
      <trkpt lat="43.61832" lon="7.04679">
        <ele>129</ele>
        <time>2012-01-19T12:36:05.000Z</time>
      </trkpt>
      <trkpt lat="43.61842" lon="7.047">
        <ele>129.19999694824</ele>
        <time>2012-01-19T12:36:08.000Z</time>
      </trkpt>
      <trkpt lat="43.61854" lon="7.04728">
        <ele>129.39999389648</ele>
        <time>2012-01-19T12:36:12.000Z</time>
      </trkpt>
      <trkpt lat="43.61857" lon="7.04734">
        <ele>129.39999389648</ele>
        <time>2012-01-19T12:36:13.000Z</time>
      </trkpt>
      <trkpt lat="43.61868" lon="7.04755">
        <ele>129.39999389648</ele>
        <time>2012-01-19T12:36:17.000Z</time>
      </trkpt>
      <trkpt lat="43.6187" lon="7.0476">
        <ele>129.39999389648</ele>
        <time>2012-01-19T12:36:18.000Z</time>
      </trkpt>
      <trkpt lat="43.61865" lon="7.04773">
        <ele>129.39999389648</ele>
        <time>2012-01-19T12:36:21.000Z</time>
      </trkpt>
      <trkpt lat="43.61863" lon="7.04776">
        <ele>129.39999389648</ele>
        <time>2012-01-19T12:36:22.000Z</time>
      </trkpt>
      <trkpt lat="43.61861" lon="7.04781">
        <ele>129.39999389648</ele>
        <time>2012-01-19T12:36:23.000Z</time>
      </trkpt>
      <trkpt lat="43.61858" lon="7.04796">
        <ele>129.39999389648</ele>
        <time>2012-01-19T12:36:26.000Z</time>
      </trkpt>
      <trkpt lat="43.61855" lon="7.04804">
        <ele>129.39999389648</ele>
        <time>2012-01-19T12:36:30.000Z</time>
      </trkpt>
      <trkpt lat="43.61854" lon="7.04804">
        <ele>129.39999389648</ele>
        <time>2012-01-19T12:36:31.000Z</time>
      </trkpt>
      <trkpt lat="43.61852" lon="7.04803">
        <ele>129.39999389648</ele>
        <time>2012-01-19T12:36:34.000Z</time>
      </trkpt>
      <trkpt lat="43.61844" lon="7.0481">
        <ele>129.60000610352</ele>
        <time>2012-01-19T12:36:39.000Z</time>
      </trkpt>
      <trkpt lat="43.61837" lon="7.04817">
        <ele>129.80000305176</ele>
        <time>2012-01-19T12:36:43.000Z</time>
      </trkpt>
      <trkpt lat="43.61836" lon="7.0482">
        <ele>129.80000305176</ele>
        <time>2012-01-19T12:36:44.000Z</time>
      </trkpt>
      <trkpt lat="43.6183" lon="7.04831">
        <ele>130.39999389648</ele>
        <time>2012-01-19T12:36:48.000Z</time>
      </trkpt>
      <trkpt lat="43.61825" lon="7.04844">
        <ele>131.80000305176</ele>
        <time>2012-01-19T12:36:52.000Z</time>
      </trkpt>
      <trkpt lat="43.61824" lon="7.04853">
        <ele>132.19999694824</ele>
        <time>2012-01-19T12:36:54.000Z</time>
      </trkpt>
      <trkpt lat="43.61824" lon="7.0486">
        <ele>132.60000610352</ele>
        <time>2012-01-19T12:36:56.000Z</time>
      </trkpt>
      <trkpt lat="43.61824" lon="7.04874">
        <ele>133.19999694824</ele>
        <time>2012-01-19T12:37:01.000Z</time>
      </trkpt>
      <trkpt lat="43.61826" lon="7.04885">
        <ele>133.39999389648</ele>
        <time>2012-01-19T12:37:06.000Z</time>
      </trkpt>
      <trkpt lat="43.61829" lon="7.04899">
        <ele>133.19999694824</ele>
        <time>2012-01-19T12:37:11.000Z</time>
      </trkpt>
      <trkpt lat="43.61835" lon="7.04906">
        <ele>132.60000610352</ele>
        <time>2012-01-19T12:37:15.000Z</time>
      </trkpt>
      <trkpt lat="43.61837" lon="7.04906">
        <ele>132.39999389648</ele>
        <time>2012-01-19T12:37:16.000Z</time>
      </trkpt>
      <trkpt lat="43.61847" lon="7.04913">
        <ele>131.80000305176</ele>
        <time>2012-01-19T12:37:21.000Z</time>
      </trkpt>
      <trkpt lat="43.61851" lon="7.04916">
        <ele>131.80000305176</ele>
        <time>2012-01-19T12:37:24.000Z</time>
      </trkpt>
      <trkpt lat="43.61854" lon="7.04917">
        <ele>131.60000610352</ele>
        <time>2012-01-19T12:37:26.000Z</time>
      </trkpt>
      <trkpt lat="43.61859" lon="7.04919">
        <ele>131.60000610352</ele>
        <time>2012-01-19T12:37:31.000Z</time>
      </trkpt>
      <trkpt lat="43.6186" lon="7.0492">
        <ele>131.60000610352</ele>
        <time>2012-01-19T12:37:33.000Z</time>
      </trkpt>
      <trkpt lat="43.61864" lon="7.04922">
        <ele>131.60000610352</ele>
        <time>2012-01-19T12:37:37.000Z</time>
      </trkpt>
      <trkpt lat="43.61873" lon="7.04928">
        <ele>131.80000305176</ele>
        <time>2012-01-19T12:37:46.000Z</time>
      </trkpt>
      <trkpt lat="43.61884" lon="7.04926">
        <ele>130.80000305176</ele>
        <time>2012-01-19T12:37:51.000Z</time>
      </trkpt>
      <trkpt lat="43.61899" lon="7.04926">
        <ele>129.60000610352</ele>
        <time>2012-01-19T12:37:56.000Z</time>
      </trkpt>
      <trkpt lat="43.61913" lon="7.04926">
        <ele>128.60000610352</ele>
        <time>2012-01-19T12:38:01.000Z</time>
      </trkpt>
      <trkpt lat="43.61925" lon="7.04931">
        <ele>128.19999694824</ele>
        <time>2012-01-19T12:38:06.000Z</time>
      </trkpt>
      <trkpt lat="43.6193" lon="7.04931">
        <ele>127.80000305176</ele>
        <time>2012-01-19T12:38:08.000Z</time>
      </trkpt>
      <trkpt lat="43.6194" lon="7.04928">
        <ele>126.80000305176</ele>
        <time>2012-01-19T12:38:11.000Z</time>
      </trkpt>
      <trkpt lat="43.61943" lon="7.04927">
        <ele>126.59999847412</ele>
        <time>2012-01-19T12:38:12.000Z</time>
      </trkpt>
      <trkpt lat="43.61951" lon="7.04927">
        <ele>126</ele>
        <time>2012-01-19T12:38:16.000Z</time>
      </trkpt>
      <trkpt lat="43.61959" lon="7.04919">
        <ele>124.59999847412</ele>
        <time>2012-01-19T12:38:20.000Z</time>
      </trkpt>
      <trkpt lat="43.6197" lon="7.04902">
        <ele>124.59999847412</ele>
        <time>2012-01-19T12:38:24.000Z</time>
      </trkpt>
      <trkpt lat="43.61984" lon="7.04889">
        <ele>125</ele>
        <time>2012-01-19T12:38:29.000Z</time>
      </trkpt>
      <trkpt lat="43.61992" lon="7.04882">
        <ele>125.19999694824</ele>
        <time>2012-01-19T12:38:33.000Z</time>
      </trkpt>
      <trkpt lat="43.61994" lon="7.04882">
        <ele>125.19999694824</ele>
        <time>2012-01-19T12:38:36.000Z</time>
      </trkpt>
      <trkpt lat="43.61998" lon="7.04883">
        <ele>124.80000305176</ele>
        <time>2012-01-19T12:38:40.000Z</time>
      </trkpt>
      <trkpt lat="43.6201" lon="7.04891">
        <ele>125</ele>
        <time>2012-01-19T12:38:45.000Z</time>
      </trkpt>
      <trkpt lat="43.62025" lon="7.04892">
        <ele>126.40000152588</ele>
        <time>2012-01-19T12:38:49.000Z</time>
      </trkpt>
      <trkpt lat="43.62039" lon="7.04905">
        <ele>126.40000152588</ele>
        <time>2012-01-19T12:38:52.000Z</time>
      </trkpt>
      <trkpt lat="43.62044" lon="7.04911">
        <ele>126.19999694824</ele>
        <time>2012-01-19T12:38:53.000Z</time>
      </trkpt>
      <trkpt lat="43.62059" lon="7.04934">
        <ele>126.40000152588</ele>
        <time>2012-01-19T12:38:57.000Z</time>
      </trkpt>
      <trkpt lat="43.62063" lon="7.0494">
        <ele>126.40000152588</ele>
        <time>2012-01-19T12:38:58.000Z</time>
      </trkpt>
      <trkpt lat="43.62075" lon="7.04963">
        <ele>126</ele>
        <time>2012-01-19T12:39:02.000Z</time>
      </trkpt>
      <trkpt lat="43.62076" lon="7.04973">
        <ele>125.59999847412</ele>
        <time>2012-01-19T12:39:04.000Z</time>
      </trkpt>
      <trkpt lat="43.62069" lon="7.04985">
        <ele>125</ele>
        <time>2012-01-19T12:39:07.000Z</time>
      </trkpt>
      <trkpt lat="43.62062" lon="7.0499">
        <ele>124.80000305176</ele>
        <time>2012-01-19T12:39:09.000Z</time>
      </trkpt>
      <trkpt lat="43.62055" lon="7.04995">
        <ele>124.80000305176</ele>
        <time>2012-01-19T12:39:11.000Z</time>
      </trkpt>
      <trkpt lat="43.6205" lon="7.05005">
        <ele>124.80000305176</ele>
        <time>2012-01-19T12:39:13.000Z</time>
      </trkpt>
      <trkpt lat="43.62048" lon="7.05025">
        <ele>125.40000152588</ele>
        <time>2012-01-19T12:39:16.000Z</time>
      </trkpt>
      <trkpt lat="43.62047" lon="7.05032">
        <ele>125.59999847412</ele>
        <time>2012-01-19T12:39:17.000Z</time>
      </trkpt>
      <trkpt lat="43.62045" lon="7.0506">
        <ele>126.59999847412</ele>
        <time>2012-01-19T12:39:21.000Z</time>
      </trkpt>
      <trkpt lat="43.62042" lon="7.05081">
        <ele>127.40000152588</ele>
        <time>2012-01-19T12:39:24.000Z</time>
      </trkpt>
      <trkpt lat="43.62037" lon="7.05112">
        <ele>128</ele>
        <time>2012-01-19T12:39:28.000Z</time>
      </trkpt>
      <trkpt lat="43.62035" lon="7.05128">
        <ele>128.60000610352</ele>
        <time>2012-01-19T12:39:30.000Z</time>
      </trkpt>
      <trkpt lat="43.62028" lon="7.05158">
        <ele>129.60000610352</ele>
        <time>2012-01-19T12:39:34.000Z</time>
      </trkpt>
      <trkpt lat="43.62022" lon="7.05179">
        <ele>130.60000610352</ele>
        <time>2012-01-19T12:39:37.000Z</time>
      </trkpt>
      <trkpt lat="43.62019" lon="7.05189">
        <ele>131</ele>
        <time>2012-01-19T12:39:39.000Z</time>
      </trkpt>
      <trkpt lat="43.62018" lon="7.052">
        <ele>131</ele>
        <time>2012-01-19T12:39:41.000Z</time>
      </trkpt>
      <trkpt lat="43.62015" lon="7.05228">
        <ele>131.60000610352</ele>
        <time>2012-01-19T12:39:45.000Z</time>
      </trkpt>
      <trkpt lat="43.62016" lon="7.05236">
        <ele>131.39999389648</ele>
        <time>2012-01-19T12:39:46.000Z</time>
      </trkpt>
      <trkpt lat="43.62018" lon="7.05262">
        <ele>130.60000610352</ele>
        <time>2012-01-19T12:39:49.000Z</time>
      </trkpt>
      <trkpt lat="43.62022" lon="7.0529">
        <ele>129</ele>
        <time>2012-01-19T12:39:52.000Z</time>
      </trkpt>
      <trkpt lat="43.62027" lon="7.05319">
        <ele>127.19999694824</ele>
        <time>2012-01-19T12:39:55.000Z</time>
      </trkpt>
      <trkpt lat="43.62031" lon="7.05347">
        <ele>125.40000152588</ele>
        <time>2012-01-19T12:39:58.000Z</time>
      </trkpt>
      <trkpt lat="43.62034" lon="7.05374">
        <ele>123.59999847412</ele>
        <time>2012-01-19T12:40:01.000Z</time>
      </trkpt>
      <trkpt lat="43.62038" lon="7.05399">
        <ele>121.40000152588</ele>
        <time>2012-01-19T12:40:04.000Z</time>
      </trkpt>
      <trkpt lat="43.6204" lon="7.05407">
        <ele>120.80000305176</ele>
        <time>2012-01-19T12:40:05.000Z</time>
      </trkpt>
      <trkpt lat="43.62045" lon="7.05431">
        <ele>119</ele>
        <time>2012-01-19T12:40:08.000Z</time>
      </trkpt>
      <trkpt lat="43.62045" lon="7.05456">
        <ele>118.40000152588</ele>
        <time>2012-01-19T12:40:11.000Z</time>
      </trkpt>
      <trkpt lat="43.62044" lon="7.05464">
        <ele>118.19999694824</ele>
        <time>2012-01-19T12:40:12.000Z</time>
      </trkpt>
      <trkpt lat="43.62041" lon="7.05478">
        <ele>118.19999694824</ele>
        <time>2012-01-19T12:40:14.000Z</time>
      </trkpt>
      <trkpt lat="43.62039" lon="7.05487">
        <ele>118.19999694824</ele>
        <time>2012-01-19T12:40:16.000Z</time>
      </trkpt>
      <trkpt lat="43.62042" lon="7.055">
        <ele>117.40000152588</ele>
        <time>2012-01-19T12:40:19.000Z</time>
      </trkpt>
      <trkpt lat="43.62047" lon="7.05529">
        <ele>116.40000152588</ele>
        <time>2012-01-19T12:40:24.000Z</time>
      </trkpt>
      <trkpt lat="43.62049" lon="7.05541">
        <ele>116</ele>
        <time>2012-01-19T12:40:26.000Z</time>
      </trkpt>
      <trkpt lat="43.62056" lon="7.05561">
        <ele>115.19999694824</ele>
        <time>2012-01-19T12:40:30.000Z</time>
      </trkpt>
      <trkpt lat="43.62058" lon="7.05563">
        <ele>115</ele>
        <time>2012-01-19T12:40:31.000Z</time>
      </trkpt>
      <trkpt lat="43.62075" lon="7.05568">
        <ele>113.59999847412</ele>
        <time>2012-01-19T12:40:35.000Z</time>
      </trkpt>
      <trkpt lat="43.62095" lon="7.05564">
        <ele>112.80000305176</ele>
        <time>2012-01-19T12:40:38.000Z</time>
      </trkpt>
      <trkpt lat="43.62102" lon="7.05562">
        <ele>112.80000305176</ele>
        <time>2012-01-19T12:40:39.000Z</time>
      </trkpt>
      <trkpt lat="43.62124" lon="7.05555">
        <ele>112.80000305176</ele>
        <time>2012-01-19T12:40:42.000Z</time>
      </trkpt>
      <trkpt lat="43.62148" lon="7.0555">
        <ele>113</ele>
        <time>2012-01-19T12:40:45.000Z</time>
      </trkpt>
      <trkpt lat="43.62155" lon="7.05552">
        <ele>112.80000305176</ele>
        <time>2012-01-19T12:40:46.000Z</time>
      </trkpt>
      <trkpt lat="43.62172" lon="7.05566">
        <ele>112.19999694824</ele>
        <time>2012-01-19T12:40:49.000Z</time>
      </trkpt>
      <trkpt lat="43.62184" lon="7.05585">
        <ele>111.59999847412</ele>
        <time>2012-01-19T12:40:52.000Z</time>
      </trkpt>
      <trkpt lat="43.62191" lon="7.056">
        <ele>111.80000305176</ele>
        <time>2012-01-19T12:40:54.000Z</time>
      </trkpt>
      <trkpt lat="43.62196" lon="7.05617">
        <ele>112</ele>
        <time>2012-01-19T12:40:56.000Z</time>
      </trkpt>
      <trkpt lat="43.622" lon="7.05642">
        <ele>112.40000152588</ele>
        <time>2012-01-19T12:40:59.000Z</time>
      </trkpt>
      <trkpt lat="43.622" lon="7.05672">
        <ele>112.59999847412</ele>
        <time>2012-01-19T12:41:03.000Z</time>
      </trkpt>
      <trkpt lat="43.62199" lon="7.05687">
        <ele>112.80000305176</ele>
        <time>2012-01-19T12:41:05.000Z</time>
      </trkpt>
      <trkpt lat="43.62191" lon="7.05717">
        <ele>112.80000305176</ele>
        <time>2012-01-19T12:41:09.000Z</time>
      </trkpt>
      <trkpt lat="43.62188" lon="7.05724">
        <ele>112.80000305176</ele>
        <time>2012-01-19T12:41:10.000Z</time>
      </trkpt>
      <trkpt lat="43.62178" lon="7.05752">
        <ele>112.40000152588</ele>
        <time>2012-01-19T12:41:14.000Z</time>
      </trkpt>
      <trkpt lat="43.6217" lon="7.05777">
        <ele>112.80000305176</ele>
        <time>2012-01-19T12:41:18.000Z</time>
      </trkpt>
      <trkpt lat="43.62167" lon="7.05804">
        <ele>113.59999847412</ele>
        <time>2012-01-19T12:41:22.000Z</time>
      </trkpt>
      <trkpt lat="43.62166" lon="7.05823">
        <ele>114.40000152588</ele>
        <time>2012-01-19T12:41:25.000Z</time>
      </trkpt>
      <trkpt lat="43.62165" lon="7.0585">
        <ele>116.19999694824</ele>
        <time>2012-01-19T12:41:30.000Z</time>
      </trkpt>
      <trkpt lat="43.62164" lon="7.05859">
        <ele>116.59999847412</ele>
        <time>2012-01-19T12:41:32.000Z</time>
      </trkpt>
      <trkpt lat="43.62159" lon="7.05872">
        <ele>117.19999694824</ele>
        <time>2012-01-19T12:41:37.000Z</time>
      </trkpt>
      <trkpt lat="43.62148" lon="7.0589">
        <ele>117.40000152588</ele>
        <time>2012-01-19T12:41:43.000Z</time>
      </trkpt>
      <trkpt lat="43.62135" lon="7.05912">
        <ele>117</ele>
        <time>2012-01-19T12:41:48.000Z</time>
      </trkpt>
      <trkpt lat="43.62132" lon="7.05918">
        <ele>117</ele>
        <time>2012-01-19T12:41:49.000Z</time>
      </trkpt>
      <trkpt lat="43.62121" lon="7.0594">
        <ele>116.40000152588</ele>
        <time>2012-01-19T12:41:53.000Z</time>
      </trkpt>
      <trkpt lat="43.62111" lon="7.05964">
        <ele>115.80000305176</ele>
        <time>2012-01-19T12:41:57.000Z</time>
      </trkpt>
      <trkpt lat="43.62103" lon="7.0599">
        <ele>115.40000152588</ele>
        <time>2012-01-19T12:42:01.000Z</time>
      </trkpt>
      <trkpt lat="43.62099" lon="7.06004">
        <ele>115.19999694824</ele>
        <time>2012-01-19T12:42:03.000Z</time>
      </trkpt>
      <trkpt lat="43.62096" lon="7.06018">
        <ele>114.80000305176</ele>
        <time>2012-01-19T12:42:05.000Z</time>
      </trkpt>
      <trkpt lat="43.62092" lon="7.06047">
        <ele>114.19999694824</ele>
        <time>2012-01-19T12:42:09.000Z</time>
      </trkpt>
      <trkpt lat="43.6209" lon="7.06068">
        <ele>114</ele>
        <time>2012-01-19T12:42:12.000Z</time>
      </trkpt>
      <trkpt lat="43.6209" lon="7.0609">
        <ele>113.80000305176</ele>
        <time>2012-01-19T12:42:16.000Z</time>
      </trkpt>
      <trkpt lat="43.6209" lon="7.06094">
        <ele>113.59999847412</ele>
        <time>2012-01-19T12:42:17.000Z</time>
      </trkpt>
      <trkpt lat="43.62091" lon="7.06099">
        <ele>113.59999847412</ele>
        <time>2012-01-19T12:42:19.000Z</time>
      </trkpt>
      <trkpt lat="43.62093" lon="7.06099">
        <ele>114</ele>
        <time>2012-01-19T12:42:21.000Z</time>
      </trkpt>
      <trkpt lat="43.62098" lon="7.061">
        <ele>114.40000152588</ele>
        <time>2012-01-19T12:42:24.000Z</time>
      </trkpt>
      <trkpt lat="43.62096" lon="7.06116">
        <ele>113.80000305176</ele>
        <time>2012-01-19T12:42:28.000Z</time>
      </trkpt>
      <trkpt lat="43.62095" lon="7.06142">
        <ele>113</ele>
        <time>2012-01-19T12:42:32.000Z</time>
      </trkpt>
      <trkpt lat="43.62096" lon="7.06153">
        <ele>112.80000305176</ele>
        <time>2012-01-19T12:42:34.000Z</time>
      </trkpt>
      <trkpt lat="43.62102" lon="7.06161">
        <ele>113.40000152588</ele>
        <time>2012-01-19T12:42:36.000Z</time>
      </trkpt>
      <trkpt lat="43.62106" lon="7.06162">
        <ele>113.80000305176</ele>
        <time>2012-01-19T12:42:37.000Z</time>
      </trkpt>
      <trkpt lat="43.62118" lon="7.06165">
        <ele>115.19999694824</ele>
        <time>2012-01-19T12:42:41.000Z</time>
      </trkpt>
      <trkpt lat="43.6212" lon="7.06166">
        <ele>115.40000152588</ele>
        <time>2012-01-19T12:42:42.000Z</time>
      </trkpt>
      <trkpt lat="43.62122" lon="7.06174">
        <ele>115.40000152588</ele>
        <time>2012-01-19T12:42:45.000Z</time>
      </trkpt>
      <trkpt lat="43.62123" lon="7.06179">
        <ele>115.40000152588</ele>
        <time>2012-01-19T12:42:47.000Z</time>
      </trkpt>
      <trkpt lat="43.62127" lon="7.06183">
        <ele>115.80000305176</ele>
        <time>2012-01-19T12:42:50.000Z</time>
      </trkpt>
      <trkpt lat="43.62134" lon="7.06179">
        <ele>116.80000305176</ele>
        <time>2012-01-19T12:42:55.000Z</time>
      </trkpt>
      <trkpt lat="43.62135" lon="7.0618">
        <ele>116.80000305176</ele>
        <time>2012-01-19T12:42:56.000Z</time>
      </trkpt>
      <trkpt lat="43.62141" lon="7.06176">
        <ele>117.59999847412</ele>
        <time>2012-01-19T12:43:02.000Z</time>
      </trkpt>
      <trkpt lat="43.62148" lon="7.06172">
        <ele>118.59999847412</ele>
        <time>2012-01-19T12:43:07.000Z</time>
      </trkpt>
      <trkpt lat="43.62155" lon="7.06166">
        <ele>119.59999847412</ele>
        <time>2012-01-19T12:43:12.000Z</time>
      </trkpt>
      <trkpt lat="43.62159" lon="7.06156">
        <ele>120.59999847412</ele>
        <time>2012-01-19T12:43:18.000Z</time>
      </trkpt>
      <trkpt lat="43.62161" lon="7.06154">
        <ele>120.80000305176</ele>
        <time>2012-01-19T12:43:20.000Z</time>
      </trkpt>
      <trkpt lat="43.62162" lon="7.06152">
        <ele>121</ele>
        <time>2012-01-19T12:43:23.000Z</time>
      </trkpt>
      <trkpt lat="43.62164" lon="7.06151">
        <ele>121.19999694824</ele>
        <time>2012-01-19T12:43:25.000Z</time>
      </trkpt>
      <trkpt lat="43.62165" lon="7.06151">
        <ele>121.40000152588</ele>
        <time>2012-01-19T12:43:26.000Z</time>
      </trkpt>
      <trkpt lat="43.62167" lon="7.0615">
        <ele>121.59999847412</ele>
        <time>2012-01-19T12:43:29.000Z</time>
      </trkpt>
      <trkpt lat="43.6217" lon="7.06149">
        <ele>122</ele>
        <time>2012-01-19T12:43:32.000Z</time>
      </trkpt>
      <trkpt lat="43.6217" lon="7.06149">
        <ele>122</ele>
        <time>2012-01-19T12:43:35.000Z</time>
      </trkpt>
      <trkpt lat="43.62176" lon="7.06144">
        <ele>122.80000305176</ele>
        <time>2012-01-19T12:43:40.000Z</time>
      </trkpt>
      <trkpt lat="43.62178" lon="7.06143">
        <ele>123.19999694824</ele>
        <time>2012-01-19T12:43:41.000Z</time>
      </trkpt>
      <trkpt lat="43.62184" lon="7.06144">
        <ele>123.80000305176</ele>
        <time>2012-01-19T12:43:44.000Z</time>
      </trkpt>
      <trkpt lat="43.62198" lon="7.0614">
        <ele>125.59999847412</ele>
        <time>2012-01-19T12:43:50.000Z</time>
      </trkpt>
      <trkpt lat="43.62203" lon="7.06129">
        <ele>126.59999847412</ele>
        <time>2012-01-19T12:43:55.000Z</time>
      </trkpt>
      <trkpt lat="43.62208" lon="7.06122">
        <ele>127.59999847412</ele>
        <time>2012-01-19T12:43:59.000Z</time>
      </trkpt>
      <trkpt lat="43.62213" lon="7.06125">
        <ele>128</ele>
        <time>2012-01-19T12:44:01.000Z</time>
      </trkpt>
      <trkpt lat="43.62216" lon="7.0613">
        <ele>128.19999694824</ele>
        <time>2012-01-19T12:44:03.000Z</time>
      </trkpt>
      <trkpt lat="43.62226" lon="7.06144">
        <ele>128.60000610352</ele>
        <time>2012-01-19T12:44:08.000Z</time>
      </trkpt>
      <trkpt lat="43.62228" lon="7.0615">
        <ele>128.60000610352</ele>
        <time>2012-01-19T12:44:12.000Z</time>
      </trkpt>
    </trkseg>
  </trk>
</gpx>